M I D A S
Marine Information and Data Acquisition System
Tripno 2276 of the Zeeleeuw from 2012-03-15 07:47:01 to 2012-03-15 15:21:42
Back to CruiseResearch ActivitiesStationsMapUnderway DataData graphs

EquipmentUnitsComment
TimeDGPSUTC
LatitudeDGPSDM.mWGS84
LongitudeDGPSDM.mWGS84
TemperatureSBE03/SBE38deg celciusITS90
ConductivitySBE21S/mITS90
SalinitySBE21 Practical Salinity Units
ChlorophylAChelsea fluorimeterg/lCalibrated in Aceton
Missing or incorrect values are displayed as -999
Sea surface data collected by the RV Zeeleeuw from 2012-03-15 06:55:46 to 2012-03-15 15:38:40
                                                                                    Next 1000 lines
Time Latitude Longitude Temperature Conductivity Salinity ChlorophylA
2012-03-15 06:55:55 51°13.634 2°56.02 12.8995 3.901362 27.195573 -2.458615
2012-03-15 06:56:01 51°13.634 2°56.019 12.8976 3.901777 27.199268 -2.458615
2012-03-15 06:56:06 51°13.634 2°56.019 12.8984 3.901777 27.199268 -2.458615
2012-03-15 06:56:11 51°13.635 2°56.019 12.8983 3.901466 27.196861 -2.458615
2012-03-15 06:56:16 51°13.635 2°56.019 12.9003 3.900948 27.193334 -2.458615
2012-03-15 06:56:20 51°13.635 2°56.019 12.9007 3.901155 27.194939 -2.458615
2012-03-15 06:56:25 51°13.635 2°56.019 12.901 3.900741 27.192214 -2.458615
2012-03-15 06:56:31 51°13.635 2°56.019 12.9018 3.901052 27.194622 -2.458615
2012-03-15 06:56:36 51°13.635 2°56.018 12.9032 3.901052 27.194622 -2.458615
2012-03-15 06:56:41 51°13.635 2°56.018 12.9036 3.900948 27.194304 -2.458615
2012-03-15 06:56:46 51°13.635 2°56.018 12.9057 3.901259 27.196712 -2.458615
2012-03-15 06:56:51 51°13.635 2°56.018 12.9069 3.900844 27.193502 -2.458615
2012-03-15 06:56:56 51°13.635 2°56.019 12.905 3.900534 27.19158 -2.458615
2012-03-15 06:57:00 51°13.635 2°56.019 12.9051 3.900637 27.192867 -2.458615
2012-03-15 06:57:05 51°13.636 2°56.019 12.906 3.900637 27.192867 -2.458615
2012-03-15 06:57:11 51°13.636 2°56.019 12.9045 3.900326 27.19046 -2.458615
2012-03-15 06:57:15 51°13.636 2°56.019 12.9053 3.900637 27.192867 -2.458615
2012-03-15 06:57:21 51°13.635 2°56.019 12.9073 3.900741 27.194155 -2.458615
2012-03-15 06:57:26 51°13.636 2°56.019 12.9083 3.900637 27.193838 -2.458615
2012-03-15 06:57:30 51°13.636 2°56.019 12.9078 3.900637 27.193838 -2.458615
2012-03-15 06:57:36 51°13.636 2°56.019 12.909 3.900637 27.193838 -2.458615
2012-03-15 06:57:40 51°13.636 2°56.019 12.9095 3.900326 27.191916 -2.458615
2012-03-15 06:57:46 51°13.636 2°56.019 12.9099 3.900119 27.190311 -2.458615
2012-03-15 06:57:51 51°13.636 2°56.019 12.9106 3.90043 27.192718 -2.458615
2012-03-15 06:57:56 51°13.636 2°56.019 12.9115 3.90043 27.193203 -2.458615
2012-03-15 06:58:01 51°13.636 2°56.019 12.9099 3.900637 27.194808 -2.458615
2012-03-15 06:58:06 51°13.635 2°56.019 12.9099 3.900637 27.194808 -2.458615
2012-03-15 06:58:11 51°13.635 2°56.019 12.9084 3.900223 27.192084 -2.458615
2012-03-15 06:58:16 51°13.635 2°56.018 12.9078 3.900223 27.192084 -2.458615
2012-03-15 06:58:20 51°13.635 2°56.019 12.9086 3.900637 27.195779 -2.458615
2012-03-15 06:58:25 51°13.635 2°56.019 12.9086 3.900326 27.193371 -2.458615
2012-03-15 06:58:31 51°13.635 2°56.018 12.9096 3.900223 27.193054 -2.458615
2012-03-15 06:58:36 51°13.635 2°56.018 12.9099 3.900223 27.193054 -2.458615
2012-03-15 06:58:40 51°13.635 2°56.018 12.9107 3.900223 27.193054 -2.458615
2012-03-15 06:58:46 51°13.635 2°56.018 12.9113 3.899808 27.190329 -2.458615
2012-03-15 06:58:51 51°13.635 2°56.018 12.9126 3.899705 27.189527 -2.458615
2012-03-15 06:58:56 51°13.635 2°56.019 12.9127 3.899912 27.191617 -2.458615
2012-03-15 06:59:00 51°13.635 2°56.019 12.9121 3.899808 27.190815 -2.458615
2012-03-15 06:59:05 51°13.635 2°56.018 12.9124 3.899808 27.190815 -2.458615
2012-03-15 06:59:11 51°13.635 2°56.019 12.9108 3.899912 27.192102 -2.458615
2012-03-15 06:59:16 51°13.635 2°56.019 12.9106 3.899705 27.190497 -2.458615
2012-03-15 06:59:21 51°13.636 2°56.019 12.9115 3.900016 27.19339 -2.458615
2012-03-15 06:59:25 51°13.636 2°56.019 12.9097 3.90043 27.196601 -2.458615
2012-03-15 06:59:31 51°13.636 2°56.019 12.9085 3.900326 27.196284 -2.458615
2012-03-15 06:59:36 51°13.636 2°56.019 12.9087 3.900326 27.196284 -2.458615
2012-03-15 06:59:41 51°13.636 2°56.018 12.9104 3.90043 27.197086 -2.458615
2012-03-15 06:59:46 51°13.636 2°56.018 12.8998 3.900223 27.195481 -2.458615
2012-03-15 06:59:51 51°13.635 2°56.018 12.9004 3.900326 27.197254 -2.458615
2012-03-15 06:59:56 51°13.635 2°56.018 12.9014 3.899912 27.194044 -2.458615
2012-03-15 07:00:01 51°13.636 2°56.018 12.9022 3.900016 27.194846 -2.458615
2012-03-15 07:00:06 51°13.635 2°56.018 12.9032 3.900016 27.194846 -2.458615
2012-03-15 07:00:11 51°13.635 2°56.018 12.9046 3.899808 27.193727 -2.458615
2012-03-15 07:00:15 51°13.635 2°56.018 12.9063 3.900326 27.19774 -2.458615
2012-03-15 07:00:21 51°13.636 2°56.018 12.9074 3.899912 27.195015 -2.458615
2012-03-15 07:00:26 51°13.636 2°56.018 12.908 3.899808 27.194212 -2.458615
2012-03-15 07:00:31 51°13.635 2°56.018 12.9059 3.900016 27.196303 -2.458615
2012-03-15 07:00:36 51°13.636 2°56.018 12.907 3.900016 27.196303 -2.458615
2012-03-15 07:00:41 51°13.635 2°56.018 12.905 3.899912 27.195986 -2.458615
2012-03-15 07:00:46 51°13.636 2°56.018 12.9053 3.900223 27.198394 -2.458615
2012-03-15 07:00:51 51°13.636 2°56.019 12.9059 3.899808 27.195183 -2.458615
2012-03-15 07:00:56 51°13.636 2°56.019 12.9069 3.899498 27.19326 -2.458615
2012-03-15 07:01:00 51°13.636 2°56.019 12.9064 3.899808 27.195668 -2.458615
2012-03-15 07:01:06 51°13.636 2°56.019 12.9071 3.899808 27.195668 -2.458615
2012-03-15 07:01:10 51°13.636 2°56.019 12.91 3.899808 27.196154 -2.458615
2012-03-15 07:01:15 51°13.636 2°56.019 12.9087 3.899601 27.194548 -2.458615
2012-03-15 07:01:21 51°13.636 2°56.019 12.9091 3.899394 27.193428 -2.458615
2012-03-15 07:01:26 51°13.636 2°56.018 12.9101 3.89929 27.193111 -2.458615
2012-03-15 07:01:31 51°13.636 2°56.019 12.9116 3.899187 27.192308 -2.458615
2012-03-15 07:01:36 51°13.636 2°56.019 12.9104 3.899187 27.192308 -2.458615
2012-03-15 07:01:41 51°13.636 2°56.019 12.9089 3.898669 27.18878 -2.458615
2012-03-15 07:01:46 51°13.636 2°56.018 12.9152 3.900016 27.199216 -2.458615
2012-03-15 07:01:50 51°13.636 2°56.018 12.9147 3.899809 27.198096 -2.458615
2012-03-15 07:01:55 51°13.636 2°56.019 12.9142 3.899187 27.193765 -2.458615
2012-03-15 07:02:01 51°13.636 2°56.019 12.9153 3.898151 27.185737 -2.458615
2012-03-15 07:02:06 51°13.636 2°56.019 12.9151 3.898151 27.185737 -2.458615
2012-03-15 07:02:11 51°13.636 2°56.019 12.9161 3.898358 27.187828 -2.458615
2012-03-15 07:02:16 51°13.636 2°56.019 12.9157 3.898669 27.190236 -2.458615
2012-03-15 07:02:21 51°13.636 2°56.019 12.9162 3.898876 27.192327 -2.458615
2012-03-15 07:02:26 51°13.636 2°56.019 12.916 3.898876 27.192327 -2.458615
2012-03-15 07:02:31 51°13.636 2°56.019 12.9165 3.898358 27.188799 -2.458615
2012-03-15 07:02:36 51°13.636 2°56.019 12.9167 3.898358 27.188799 -2.458615
2012-03-15 07:02:40 51°13.636 2°56.019 12.9153 3.898565 27.190404 -2.458615
2012-03-15 07:02:46 51°13.637 2°56.019 12.9154 3.898254 27.187996 -2.458615
2012-03-15 07:02:51 51°13.637 2°56.02 12.9162 3.898772 27.19201 -2.458615
2012-03-15 07:02:56 51°13.636 2°56.02 12.9033 3.901777 27.215779 -2.458615
2012-03-15 07:03:00 51°13.636 2°56.02 12.9061 3.89898 27.194587 -2.458615
2012-03-15 07:03:05 51°13.636 2°56.02 12.9087 3.89898 27.194587 -2.458615
2012-03-15 07:03:11 51°13.636 2°56.02 12.9108 3.898462 27.191058 -2.458615
2012-03-15 07:03:16 51°13.636 2°56.019 12.9132 3.899809 27.201495 -2.458615
2012-03-15 07:03:21 51°13.636 2°56.019 12.9149 3.899083 27.196361 -2.458615
2012-03-15 07:03:26 51°13.636 2°56.019 12.9169 3.898773 27.193952 -2.458615
2012-03-15 07:03:31 51°13.636 2°56.02 12.9161 3.898669 27.193635 -2.458615
2012-03-15 07:03:36 51°13.636 2°56.019 12.9177 3.898669 27.193635 -2.458615
2012-03-15 07:03:40 51°13.636 2°56.02 12.9189 3.898876 27.195726 -2.458615
2012-03-15 07:03:45 51°13.636 2°56.02 12.9192 3.898565 27.193318 -2.458615
2012-03-15 07:03:50 51°13.636 2°56.019 12.9201 3.898773 27.195409 -2.458615
2012-03-15 07:03:56 51°13.636 2°56.019 12.9207 3.898669 27.194606 -2.458615
2012-03-15 07:04:01 51°13.636 2°56.019 12.9192 3.89898 27.197501 -2.458615
2012-03-15 07:04:06 51°13.636 2°56.019 12.9195 3.89898 27.197501 -2.458615
2012-03-15 07:04:10 51°13.636 2°56.019 12.9195 3.89898 27.197501 -2.458615
2012-03-15 07:04:16 51°13.636 2°56.02 12.9209 3.898876 27.197183 -2.458615
2012-03-15 07:04:21 51°13.636 2°56.02 12.921 3.89898 27.197986 -2.458615
2012-03-15 07:04:26 51°13.636 2°56.02 12.922 3.89898 27.198472 -2.458615
2012-03-15 07:04:31 51°13.636 2°56.02 12.9214 3.898565 27.19526 -2.458615
2012-03-15 07:04:35 51°13.636 2°56.02 12.9204 3.898565 27.19526 -2.458615
2012-03-15 07:04:40 51°13.636 2°56.02 12.9207 3.898773 27.197352 -2.458615
2012-03-15 07:04:46 51°13.636 2°56.02 12.9222 3.898358 27.19414 -2.458615
2012-03-15 07:04:51 51°13.636 2°56.02 12.9231 3.898669 27.197035 -2.458615
2012-03-15 07:04:56 51°13.636 2°56.02 12.9239 3.898047 27.192702 -2.458615
2012-03-15 07:05:01 51°13.636 2°56.02 12.9258 3.897944 27.191899 -2.458615
2012-03-15 07:05:06 51°13.636 2°56.02 12.9258 3.897944 27.191899 -2.458615
2012-03-15 07:05:11 51°13.636 2°56.02 12.9271 3.898255 27.194308 -2.458615
2012-03-15 07:05:16 51°13.636 2°56.019 12.9265 3.897944 27.192385 -2.458615
2012-03-15 07:05:20 51°13.636 2°56.019 12.9296 3.897529 27.189659 -2.458615
2012-03-15 07:05:26 51°13.636 2°56.019 12.9324 3.89784 27.192068 -2.458615
2012-03-15 07:05:31 51°13.636 2°56.019 12.9318 3.897737 27.19175 -2.458615
2012-03-15 07:05:36 51°13.636 2°56.019 12.9332 3.897737 27.19175 -2.458615
2012-03-15 07:05:41 51°13.636 2°56.019 12.9344 3.897322 27.188538 -2.458615
2012-03-15 07:05:46 51°13.636 2°56.019 12.9351 3.897011 27.186129 -2.458615
2012-03-15 07:05:51 51°13.636 2°56.019 12.9357 3.897218 27.188221 -2.458615
2012-03-15 07:05:56 51°13.636 2°56.019 12.9341 3.897011 27.187101 -2.458615
2012-03-15 07:06:01 51°13.636 2°56.019 12.934 3.897115 27.187904 -2.458615
2012-03-15 07:06:05 51°13.636 2°56.019 12.9318 3.897115 27.187904 -2.458615
2012-03-15 07:06:11 51°13.636 2°56.019 12.9352 3.897322 27.189995 -2.458615
2012-03-15 07:06:16 51°13.636 2°56.019 12.8396 3.899498 27.20686 -2.458615
2012-03-15 07:06:21 51°13.635 2°56.018 12.8755 3.904678 27.247507 -2.458615
2012-03-15 07:06:26 51°13.635 2°56.018 12.872 3.903642 27.239474 -2.458615
2012-03-15 07:06:31 51°13.635 2°56.018 12.8804 3.902813 27.233048 -2.458615
2012-03-15 07:06:36 51°13.636 2°56.019 12.8728 3.902813 27.233048 -2.458615
2012-03-15 07:06:41 51°13.636 2°56.019 12.8627 3.903435 27.238354 -2.458615
2012-03-15 07:06:46 51°13.636 2°56.019 12.8604 3.903642 27.239961 -2.458615
2012-03-15 07:06:51 51°13.636 2°56.019 12.8568 3.903746 27.241251 -2.458615
2012-03-15 07:06:56 51°13.636 2°56.019 12.8574 3.903332 27.238037 -2.458615
2012-03-15 07:07:01 51°13.636 2°56.019 12.8609 3.902503 27.232098 -2.458615
2012-03-15 07:07:06 51°13.636 2°56.019 12.8661 3.902503 27.232098 -2.458615
2012-03-15 07:07:10 51°13.636 2°56.019 12.8683 3.901777 27.226961 -2.458615
2012-03-15 07:07:16 51°13.636 2°56.019 12.8716 3.901985 27.228568 -2.458615
2012-03-15 07:07:20 51°13.636 2°56.019 12.8722 3.902192 27.230174 -2.458615
2012-03-15 07:07:26 51°13.636 2°56.019 12.8712 3.902814 27.235481 -2.458615
2012-03-15 07:07:31 51°13.635 2°56.019 12.8705 3.903746 27.243197 -2.458615
2012-03-15 07:07:35 51°13.635 2°56.019 12.8736 3.903746 27.243197 -2.458615
2012-03-15 07:07:41 51°13.635 2°56.019 12.8792 3.902295 27.231951 -2.458615
2012-03-15 07:07:46 51°13.635 2°56.019 12.8834 3.902088 27.23083 -2.458615
2012-03-15 07:07:51 51°13.636 2°56.02 12.8849 3.902917 27.237257 -2.458615
2012-03-15 07:07:55 51°13.636 2°56.019 12.8919 3.900949 27.22248 -2.458615
2012-03-15 07:08:00 51°13.636 2°56.019 12.8926 3.901156 27.224573 -2.458615
2012-03-15 07:08:06 51°13.636 2°56.019 12.8903 3.901156 27.224573 -2.458615
2012-03-15 07:08:11 51°13.635 2°56.019 12.8898 3.901777 27.229393 -2.458615
2012-03-15 07:08:16 51°13.636 2°56.019 12.8903 3.900638 27.220557 -2.458615
2012-03-15 07:08:21 51°13.636 2°56.019 12.8892 3.901259 27.225377 -2.458615
2012-03-15 07:08:26 51°13.636 2°56.019 12.8892 3.901156 27.22506 -2.458615
2012-03-15 07:08:31 51°13.636 2°56.02 12.8888 3.901363 27.227153 -2.458615
2012-03-15 07:08:36 51°13.636 2°56.02 12.8853 3.901363 27.227153 -2.458615
2012-03-15 07:08:41 51°13.636 2°56.02 12.8875 3.901467 27.227956 -2.458615
2012-03-15 07:08:46 51°13.636 2°56.02 12.8885 3.901363 27.227639 -2.458615
2012-03-15 07:08:51 51°13.636 2°56.02 12.8918 3.900845 27.223623 -2.458615
2012-03-15 07:08:56 51°13.636 2°56.02 12.8941 3.901363 27.228126 -2.458615
2012-03-15 07:09:00 51°13.636 2°56.021 12.8979 3.900534 27.222185 -2.458615
2012-03-15 07:09:05 51°13.636 2°56.02 12.899 3.900534 27.222185 -2.458615
2012-03-15 07:09:10 51°13.636 2°56.021 12.9002 3.900845 27.224596 -2.458615
2012-03-15 07:09:16 51°13.636 2°56.021 12.9026 3.901674 27.231509 -2.458615
2012-03-15 07:09:21 51°13.636 2°56.021 12.9024 3.900741 27.224279 -2.458615
2012-03-15 07:09:26 51°13.636 2°56.021 12.9045 3.900327 27.221065 -2.458615
2012-03-15 07:09:31 51°13.636 2°56.021 12.9069 3.900845 27.225568 -2.458615
2012-03-15 07:09:36 51°13.636 2°56.021 12.9086 3.900845 27.225568 -2.458615
2012-03-15 07:09:41 51°13.636 2°56.021 12.9104 3.900638 27.223962 -2.458615
2012-03-15 07:09:46 51°13.636 2°56.021 12.909 3.900431 27.222841 -2.458615
2012-03-15 07:09:51 51°13.636 2°56.021 12.9096 3.900534 27.224131 -2.458615
2012-03-15 07:09:56 51°13.636 2°56.02 12.9106 3.900845 27.226542 -2.458615
2012-03-15 07:10:01 51°13.636 2°56.02 12.9091 3.900741 27.226225 -2.458615
2012-03-15 07:10:05 51°13.636 2°56.02 12.9117 3.900741 27.226225 -2.458615
2012-03-15 07:10:11 51°13.636 2°56.02 12.9141 3.900845 27.227028 -2.458615
2012-03-15 07:10:16 51°13.636 2°56.021 12.9149 3.900016 27.221087 -2.458615
2012-03-15 07:10:21 51°13.636 2°56.02 12.9141 3.900223 27.222694 -2.458615
2012-03-15 07:10:26 51°13.635 2°56.02 12.911 3.900845 27.228001 -2.458615
2012-03-15 07:10:30 51°13.636 2°56.02 12.9091 3.901156 27.230412 -2.458615
2012-03-15 07:10:36 51°13.636 2°56.02 12.9066 3.901156 27.230412 -2.458615
2012-03-15 07:10:40 51°13.636 2°56.02 12.9038 3.901156 27.230898 -2.458615
2012-03-15 07:10:46 51°13.635 2°56.019 12.903 3.901156 27.230898 -2.458615
2012-03-15 07:10:51 51°13.635 2°56.019 12.9028 3.901363 27.232992 -2.458615
2012-03-15 07:10:56 51°13.635 2°56.019 12.9046 3.901778 27.236206 -2.458615
2012-03-15 07:11:01 51°13.636 2°56.02 12.9052 3.90126 27.232675 -2.458615
2012-03-15 07:11:06 51°13.636 2°56.02 12.9057 3.90126 27.232675 -2.458615
2012-03-15 07:11:11 51°13.636 2°56.02 12.9057 3.901363 27.233479 -2.458615
2012-03-15 07:11:16 51°13.636 2°56.019 12.9055 3.901778 27.23718 -2.458615
2012-03-15 07:11:20 51°13.636 2°56.019 12.9066 3.901363 27.233966 -2.458615
2012-03-15 07:11:25 51°13.636 2°56.019 12.9086 3.900742 27.229631 -2.458615
2012-03-15 07:11:31 51°13.636 2°56.019 12.9057 3.90126 27.234135 -2.458615
2012-03-15 07:11:36 51°13.636 2°56.02 12.9041 3.90126 27.234135 -2.458615
2012-03-15 07:11:41 51°13.636 2°56.02 12.9038 3.901467 27.235743 -2.458615
2012-03-15 07:11:46 51°13.636 2°56.019 12.9019 3.901052 27.233015 -2.458615
2012-03-15 07:11:51 51°13.635 2°56.019 12.9016 3.901778 27.23864 -2.458615
2012-03-15 07:11:56 51°13.636 2°56.019 12.9025 3.901881 27.239931 -2.458615
2012-03-15 07:12:00 51°13.636 2°56.019 12.9017 3.901881 27.239931 -2.458615
2012-03-15 07:12:05 51°13.636 2°56.019 12.903 3.901881 27.239931 -2.458615
2012-03-15 07:12:10 51°13.636 2°56.02 12.9037 3.902296 27.243632 -2.458615
2012-03-15 07:12:16 51°13.636 2°56.02 12.9024 3.902296 27.244119 -2.458615
2012-03-15 07:12:21 51°13.635 2°56.02 12.9032 3.901985 27.241708 -2.458615
2012-03-15 07:12:26 51°13.636 2°56.02 12.9044 3.90157 27.238981 -2.458615
2012-03-15 07:12:31 51°13.636 2°56.02 12.906 3.90126 27.23657 -2.458615
2012-03-15 07:12:36 51°13.635 2°56.02 12.9069 3.90126 27.23657 -2.458615
2012-03-15 07:12:41 51°13.635 2°56.02 12.908 3.901881 27.241392 -2.458615
2012-03-15 07:12:45 51°13.635 2°56.02 12.9094 3.901674 27.240271 -2.458615
2012-03-15 07:12:51 51°13.636 2°56.02 12.9097 3.90157 27.239954 -2.458615
2012-03-15 07:12:56 51°13.636 2°56.02 12.912 3.901052 27.236423 -2.458615
2012-03-15 07:13:01 51°13.635 2°56.02 12.914 3.900534 27.232404 -2.458615
2012-03-15 07:13:06 51°13.635 2°56.02 12.9147 3.900534 27.232404 -2.458615
2012-03-15 07:13:10 51°13.635 2°56.02 12.9159 3.900742 27.234499 -2.458615
2012-03-15 07:13:16 51°13.635 2°56.02 12.9148 3.900534 27.232891 -2.458615
2012-03-15 07:13:21 51°13.635 2°56.02 12.9128 3.900742 27.234986 -2.458615
2012-03-15 07:13:26 51°13.635 2°56.02 12.9136 3.90012 27.23065 -2.458615
2012-03-15 07:13:30 51°13.635 2°56.02 12.9163 3.900327 27.232744 -2.458615
2012-03-15 07:13:35 51°13.635 2°56.02 12.9165 3.900327 27.232744 -2.458615
2012-03-15 07:13:40 51°13.635 2°56.02 12.9167 3.900534 27.234352 -2.458615
2012-03-15 07:13:46 51°13.635 2°56.02 12.9165 3.900638 27.235156 -2.458615
2012-03-15 07:13:51 51°13.635 2°56.02 12.9187 3.901363 27.241756 -2.458615
2012-03-15 07:13:56 51°13.635 2°56.019 12.919 3.901052 27.238858 -2.458615
2012-03-15 07:14:01 51°13.635 2°56.019 12.9198 3.901156 27.240148 -2.458615
2012-03-15 07:14:05 51°13.635 2°56.019 12.9197 3.901156 27.240148 -2.458615
2012-03-15 07:14:10 51°13.635 2°56.019 12.9212 3.900949 27.239028 -2.458615
2012-03-15 07:14:16 51°13.635 2°56.019 12.9239 3.900534 27.2363 -2.458615
2012-03-15 07:14:21 51°13.635 2°56.019 12.9239 3.900742 27.237907 -2.458615
2012-03-15 07:14:26 51°13.635 2°56.019 12.9237 3.900638 27.23759 -2.458615
2012-03-15 07:14:31 51°13.635 2°56.019 12.9263 3.900224 27.234862 -2.458615
2012-03-15 07:14:36 51°13.635 2°56.019 12.9286 3.900224 27.234862 -2.458615
2012-03-15 07:14:40 51°13.635 2°56.019 12.9284 3.899498 27.229236 -2.458615
2012-03-15 07:14:46 51°13.636 2°56.019 12.9276 3.90012 27.234545 -2.458615
2012-03-15 07:14:51 51°13.635 2°56.019 12.9269 3.900016 27.233742 -2.458615
2012-03-15 07:14:56 51°13.635 2°56.019 12.9259 3.90012 27.235032 -2.458615
2012-03-15 07:15:01 51°13.635 2°56.019 12.9279 3.899913 27.233912 -2.458615
2012-03-15 07:15:06 51°13.635 2°56.019 12.9269 3.899913 27.233912 -2.458615
2012-03-15 07:15:10 51°13.635 2°56.019 12.9281 3.900845 27.241634 -2.458615
2012-03-15 07:15:15 51°13.635 2°56.019 12.9293 3.900535 27.239222 -2.458615
2012-03-15 07:15:21 51°13.635 2°56.019 12.933 3.900845 27.242121 -2.458615
2012-03-15 07:15:26 51°13.635 2°56.019 12.9347 3.900845 27.242608 -2.458615
2012-03-15 07:15:31 51°13.635 2°56.019 12.9355 3.900224 27.238271 -2.458615
2012-03-15 07:15:36 51°13.635 2°56.02 12.9372 3.900224 27.238271 -2.458615
2012-03-15 07:15:41 51°13.635 2°56.02 12.937 3.90012 27.237468 -2.458615
2012-03-15 07:15:46 51°13.635 2°56.02 12.9394 3.899913 27.236347 -2.458615
2012-03-15 07:15:51 51°13.635 2°56.02 12.9426 3.899498 27.233618 -2.458615
2012-03-15 07:15:56 51°13.635 2°56.02 12.9461 3.89867 27.227187 -2.458615
2012-03-15 07:16:01 51°13.635 2°56.02 12.9472 3.89898 27.229599 -2.458615
2012-03-15 07:16:06 51°13.635 2°56.02 12.9491 3.89898 27.229599 -2.458615
2012-03-15 07:16:11 51°13.635 2°56.02 12.9463 3.89898 27.230573 -2.458615
2012-03-15 07:16:15 51°13.635 2°56.021 12.9511 3.899084 27.231377 -2.458615
2012-03-15 07:16:21 51°13.635 2°56.02 12.9634 3.896701 27.213374 -2.458615
2012-03-15 07:16:26 51°13.635 2°56.02 12.9977 3.8938 27.190866 -2.458615
2012-03-15 07:16:31 51°13.635 2°56.02 13.0323 3.890277 27.164512 -2.458615
2012-03-15 07:16:36 51°13.635 2°56.02 13.0378 3.890277 27.164512 -2.458615
2012-03-15 07:16:41 51°13.635 2°56.02 13.0407 3.89007 27.162904 -2.458615
2012-03-15 07:16:45 51°13.635 2°56.02 13.0333 3.889966 27.162586 -2.458615
2012-03-15 07:16:50 51°13.635 2°56.02 13.0267 3.890485 27.167091 -2.458615
2012-03-15 07:16:56 51°13.635 2°56.02 13.0199 3.891521 27.175128 -2.458615
2012-03-15 07:17:01 51°13.635 2°56.02 13.0157 3.891521 27.175614 -2.458615
2012-03-15 07:17:06 51°13.635 2°56.02 13.0121 3.891521 27.175614 -2.458615
2012-03-15 07:17:11 51°13.635 2°56.02 13.0092 3.891106 27.172885 -2.458615
2012-03-15 07:17:16 51°13.635 2°56.02 13.0105 3.891728 27.177708 -2.458615
2012-03-15 07:17:21 51°13.635 2°56.02 13.0085 3.891728 27.178194 -2.458615
2012-03-15 07:17:26 51°13.636 2°56.02 13.0117 3.891624 27.177877 -2.458615
2012-03-15 07:17:31 51°13.635 2°56.02 13.0143 3.890588 27.169838 -2.458615
2012-03-15 07:17:36 51°13.635 2°56.02 13.015 3.890588 27.169838 -2.458615
2012-03-15 07:17:41 51°13.635 2°56.02 13.0162 3.890795 27.171932 -2.458615
2012-03-15 07:17:46 51°13.636 2°56.02 13.0177 3.890381 27.168717 -2.458615
2012-03-15 07:17:50 51°13.635 2°56.02 13.0172 3.889863 27.165184 -2.458615
2012-03-15 07:17:56 51°13.636 2°56.02 13.0186 3.889967 27.166474 -2.458615
2012-03-15 07:18:01 51°13.635 2°56.02 13.0166 3.890277 27.168885 -2.458615
2012-03-15 07:18:06 51°13.636 2°56.02 13.0189 3.890277 27.168885 -2.458615
2012-03-15 07:18:11 51°13.635 2°56.02 13.0153 3.889863 27.166156 -2.458615
2012-03-15 07:18:16 51°13.635 2°56.02 13.0159 3.889863 27.166642 -2.458615
2012-03-15 07:18:20 51°13.636 2°56.02 13.0158 3.89007 27.168249 -2.458615
2012-03-15 07:18:26 51°13.636 2°56.02 13.0173 3.890277 27.170343 -2.458615
2012-03-15 07:18:31 51°13.635 2°56.02 13.0146 3.89007 27.169222 -2.458615
2012-03-15 07:18:36 51°13.636 2°56.02 13.0161 3.89007 27.169222 -2.458615
2012-03-15 07:18:40 51°13.636 2°56.02 13.0121 3.889656 27.166492 -2.458615
2012-03-15 07:18:46 51°13.635 2°56.019 13.0106 3.889759 27.167296 -2.458615
2012-03-15 07:18:51 51°13.635 2°56.019 13.0099 3.889967 27.16939 -2.458615
2012-03-15 07:18:55 51°13.635 2°56.019 13.0083 3.889656 27.166978 -2.458615
2012-03-15 07:19:00 51°13.636 2°56.02 13.0073 3.889759 27.168268 -2.458615
2012-03-15 07:19:05 51°13.636 2°56.02 13.0079 3.889759 27.168268 -2.458615
2012-03-15 07:19:11 51°13.636 2°56.02 13.0066 3.889863 27.169558 -2.458615
2012-03-15 07:19:16 51°13.636 2°56.02 13.0073 3.889656 27.16795 -2.458615
2012-03-15 07:19:21 51°13.636 2°56.02 13.0068 3.889967 27.170362 -2.458615
2012-03-15 07:19:26 51°13.636 2°56.02 13.011 3.889656 27.168436 -2.458615
2012-03-15 07:19:31 51°13.636 2°56.02 13.0068 3.889449 27.167315 -2.458615
2012-03-15 07:19:36 51°13.636 2°56.02 13.0078 3.889449 27.167315 -2.458615
2012-03-15 07:19:41 51°13.636 2°56.02 13.0076 3.889241 27.166193 -2.458615
2012-03-15 07:19:46 51°13.636 2°56.02 13.0037 3.889241 27.166193 -2.458615
2012-03-15 07:19:51 51°13.636 2°56.02 13.0029 3.889138 27.165875 -2.458615
2012-03-15 07:19:56 51°13.636 2°56.02 13.0034 3.889656 27.169895 -2.458615
2012-03-15 07:20:01 51°13.636 2°56.02 13.0029 3.889656 27.170381 -2.458615
2012-03-15 07:20:05 51°13.636 2°56.02 13.0022 3.889656 27.170381 -2.458615
2012-03-15 07:20:11 51°13.636 2°56.02 12.9999 3.889656 27.170381 -2.458615
2012-03-15 07:20:16 51°13.636 2°56.02 13.0029 3.890381 27.176495 -2.458615
2012-03-15 07:20:21 51°13.636 2°56.02 13.0029 3.890278 27.175691 -2.458615
2012-03-15 07:20:26 51°13.636 2°56.02 13.0027 3.889967 27.173765 -2.458615
2012-03-15 07:20:31 51°13.636 2°56.02 13.0011 3.889552 27.170549 -2.458615
2012-03-15 07:20:36 51°13.636 2°56.02 13.0009 3.889552 27.170549 -2.458615
2012-03-15 07:20:41 51°13.636 2°56.02 12.9998 3.889552 27.171036 -2.458615
2012-03-15 07:20:46 51°13.636 2°56.02 12.9995 3.889656 27.17184 -2.458615
2012-03-15 07:20:51 51°13.636 2°56.02 12.9991 3.889656 27.172326 -2.458615
2012-03-15 07:20:56 51°13.636 2°56.019 12.9998 3.889863 27.17442 -2.458615
2012-03-15 07:21:01 51°13.636 2°56.019 13 3.889656 27.172812 -2.458615
2012-03-15 07:21:06 51°13.636 2°56.02 13.0013 3.889656 27.172812 -2.458615
2012-03-15 07:21:11 51°13.636 2°56.02 13.0036 3.889552 27.172494 -2.458615
2012-03-15 07:21:15 51°13.636 2°56.02 13.0049 3.889345 27.170886 -2.458615
2012-03-15 07:21:21 51°13.635 2°56.019 13.0027 3.889449 27.172177 -2.458615
2012-03-15 07:21:26 51°13.636 2°56.02 13.004 3.889449 27.172663 -2.458615
2012-03-15 07:21:31 51°13.636 2°56.02 13.0041 3.889138 27.170251 -2.458615
2012-03-15 07:21:36 51°13.636 2°56.02 13.005 3.889138 27.170251 -2.458615
2012-03-15 07:21:40 51°13.636 2°56.02 13.0032 3.889138 27.170737 -2.458615
2012-03-15 07:21:45 51°13.636 2°56.02 13.0037 3.889449 27.173635 -2.458615
2012-03-15 07:21:50 51°13.636 2°56.02 13.0059 3.889034 27.170419 -2.458615
2012-03-15 07:21:55 51°13.636 2°56.019 13.006 3.889138 27.171223 -2.458615
2012-03-15 07:22:01 51°13.636 2°56.02 13.0089 3.888516 27.166885 -2.458615
2012-03-15 07:22:06 51°13.636 2°56.02 13.0066 3.888516 27.166885 -2.458615
2012-03-15 07:22:11 51°13.635 2°56.019 13.0069 3.889138 27.172196 -2.458615
2012-03-15 07:22:16 51°13.635 2°56.019 13.0064 3.888827 27.169783 -2.458615
2012-03-15 07:22:21 51°13.636 2°56.02 13.0056 3.889345 27.17429 -2.458615
2012-03-15 07:22:26 51°13.636 2°56.019 13.0048 3.889552 27.175899 -2.458615
2012-03-15 07:22:31 51°13.636 2°56.019 13.0043 3.889345 27.174777 -2.458615
2012-03-15 07:22:36 51°13.635 2°56.019 13.0044 3.889345 27.174777 -2.458615
2012-03-15 07:22:41 51°13.636 2°56.019 13.0018 3.889345 27.174777 -2.458615
2012-03-15 07:22:46 51°13.636 2°56.02 13.0034 3.889552 27.176872 -2.458615
2012-03-15 07:22:50 51°13.636 2°56.02 13.0048 3.889034 27.172851 -2.458615
2012-03-15 07:22:56 51°13.636 2°56.02 13.0043 3.888724 27.170924 -2.458615
2012-03-15 07:23:01 51°13.636 2°56.019 13.0066 3.888724 27.171411 -2.458615
2012-03-15 07:23:06 51°13.636 2°56.019 13.0093 3.888724 27.171411 -2.458615
2012-03-15 07:23:11 51°13.635 2°56.019 13.0091 3.887998 27.165781 -2.458615
2012-03-15 07:23:16 51°13.635 2°56.019 13.0128 3.887998 27.166268 -2.458615
2012-03-15 07:23:21 51°13.635 2°56.019 13.0137 3.888102 27.167072 -2.458615
2012-03-15 07:23:26 51°13.636 2°56.019 13.0158 3.887791 27.165146 -2.458615
2012-03-15 07:23:31 51°13.635 2°56.019 13.016 3.888102 27.167558 -2.458615
2012-03-15 07:23:36 51°13.635 2°56.019 13.0184 3.888102 27.167558 -2.458615
2012-03-15 07:23:41 51°13.635 2°56.019 13.0172 3.887791 27.165632 -2.458615
2012-03-15 07:23:46 51°13.635 2°56.019 13.0177 3.888827 27.173674 -2.458615
2012-03-15 07:23:50 51°13.636 2°56.019 13.0148 3.888413 27.170944 -2.458615
2012-03-15 07:23:55 51°13.636 2°56.019 13.0154 3.887998 27.167727 -2.458615
2012-03-15 07:24:01 51°13.636 2°56.019 13.0129 3.889242 27.177864 -2.458615
2012-03-15 07:24:06 51°13.636 2°56.02 13.0147 3.889242 27.177864 -2.458615
2012-03-15 07:24:11 51°13.635 2°56.019 13.0133 3.888516 27.172234 -2.458615
2012-03-15 07:24:16 51°13.636 2°56.019 13.0123 3.887895 27.167895 -2.458615
2012-03-15 07:24:21 51°13.636 2°56.019 13.0137 3.888102 27.16999 -2.458615
2012-03-15 07:24:26 51°13.636 2°56.02 13.014 3.888206 27.170795 -2.458615
2012-03-15 07:24:31 51°13.636 2°56.02 13.015 3.887998 27.169672 -2.458615
2012-03-15 07:24:36 51°13.635 2°56.019 13.0167 3.887998 27.169672 -2.458615
2012-03-15 07:24:41 51°13.636 2°56.019 13.0196 3.887791 27.168064 -2.458615
2012-03-15 07:24:46 51°13.636 2°56.019 13.0188 3.887998 27.170159 -2.458615
2012-03-15 07:24:50 51°13.636 2°56.019 13.0191 3.887688 27.168232 -2.458615
2012-03-15 07:24:55 51°13.636 2°56.019 13.018 3.888413 27.173863 -2.458615
2012-03-15 07:25:01 51°13.635 2°56.019 13.0179 3.888309 27.173545 -2.458615
2012-03-15 07:25:06 51°13.635 2°56.019 13.0192 3.888309 27.173545 -2.458615
2012-03-15 07:25:11 51°13.635 2°56.019 13.0203 3.887998 27.171132 -2.458615
2012-03-15 07:25:16 51°13.635 2°56.019 13.0208 3.887377 27.166792 -2.458615
2012-03-15 07:25:21 51°13.636 2°56.019 13.0231 3.887688 27.169205 -2.458615
2012-03-15 07:25:26 51°13.635 2°56.019 13.0223 3.887895 27.1713 -2.458615
2012-03-15 07:25:31 51°13.635 2°56.019 13.0235 3.88748 27.168569 -2.458615
2012-03-15 07:25:36 51°13.635 2°56.019 13.0244 3.88748 27.168569 -2.458615
2012-03-15 07:25:40 51°13.635 2°56.019 13.0246 3.887895 27.171787 -2.458615
2012-03-15 07:25:46 51°13.635 2°56.019 13.0143 3.887584 27.16986 -2.458615
2012-03-15 07:25:51 51°13.635 2°56.019 13.0252 3.888309 27.175491 -2.458615
2012-03-15 07:25:56 51°13.635 2°56.019 13.0479 3.887066 27.166325 -2.458615
2012-03-15 07:26:00 51°13.635 2°56.019 13.0368 3.886962 27.166007 -2.458615
2012-03-15 07:26:05 51°13.635 2°56.019 13.037 3.886962 27.166007 -2.458615
2012-03-15 07:26:10 51°13.635 2°56.019 13.0322 3.88717 27.167616 -2.458615
2012-03-15 07:26:16 51°13.635 2°56.019 13.0338 3.886134 27.160058 -2.458615
2012-03-15 07:26:21 51°13.635 2°56.019 13.0285 3.887998 27.174538 -2.458615
2012-03-15 07:26:26 51°13.635 2°56.019 13.0272 3.889138 27.183387 -2.458615
2012-03-15 07:26:31 51°13.635 2°56.019 13.0294 3.888309 27.177438 -2.458615
2012-03-15 07:26:36 51°13.635 2°56.019 13.0279 3.888309 27.177438 -2.458615
2012-03-15 07:26:41 51°13.635 2°56.019 13.0288 3.888206 27.17712 -2.458615
2012-03-15 07:26:46 51°13.635 2°56.019 13.0288 3.888931 27.183238 -2.458615
2012-03-15 07:26:51 51°13.635 2°56.019 13.0265 3.888931 27.183238 -2.458615
2012-03-15 07:26:56 51°13.635 2°56.019 13.0258 3.888517 27.18002 -2.458615
2012-03-15 07:27:01 51°13.635 2°56.019 13.0275 3.888517 27.180507 -2.458615
2012-03-15 07:27:06 51°13.635 2°56.019 13.0287 3.888517 27.180507 -2.458615
2012-03-15 07:27:11 51°13.635 2°56.019 13.0295 3.88862 27.181311 -2.458615
2012-03-15 07:27:16 51°13.635 2°56.019 13.0308 3.888413 27.180676 -2.458615
2012-03-15 07:27:21 51°13.634 2°56.019 13.0324 3.888309 27.179871 -2.458615
2012-03-15 07:27:26 51°13.635 2°56.019 13.0328 3.888206 27.179067 -2.458615
2012-03-15 07:27:31 51°13.635 2°56.019 13.0334 3.888517 27.181967 -2.458615
2012-03-15 07:27:36 51°13.635 2°56.019 13.035 3.888517 27.181967 -2.458615
2012-03-15 07:27:41 51°13.634 2°56.019 13.0357 3.887999 27.177945 -2.458615
2012-03-15 07:27:46 51°13.635 2°56.019 13.035 3.888517 27.182454 -2.458615
2012-03-15 07:27:51 51°13.635 2°56.019 13.0349 3.887895 27.178114 -2.458615
2012-03-15 07:27:56 51°13.635 2°56.019 13.0367 3.887895 27.1786 -2.458615
2012-03-15 07:28:01 51°13.634 2°56.019 13.0389 3.887895 27.1786 -2.458615
2012-03-15 07:28:06 51°13.635 2°56.019 13.04 3.887895 27.1786 -2.458615
2012-03-15 07:28:11 51°13.635 2°56.019 13.0416 3.887584 27.176673 -2.458615
2012-03-15 07:28:16 51°13.635 2°56.019 13.0439 3.887791 27.178283 -2.458615
2012-03-15 07:28:21 51°13.635 2°56.019 13.0454 3.888724 27.185524 -2.458615
2012-03-15 07:28:26 51°13.635 2°56.019 13.044 3.887273 27.174746 -2.458615
2012-03-15 07:28:31 51°13.635 2°56.019 13.0447 3.88717 27.174429 -2.458615
2012-03-15 07:28:36 51°13.635 2°56.019 13.0446 3.88717 27.174429 -2.458615
2012-03-15 07:28:41 51°13.635 2°56.019 13.0431 3.887481 27.176842 -2.458615
2012-03-15 07:28:46 51°13.635 2°56.019 13.0439 3.88717 27.174915 -2.458615
2012-03-15 07:28:51 51°13.635 2°56.019 13.0448 3.88717 27.175402 -2.458615
2012-03-15 07:28:56 51°13.635 2°56.019 13.0465 3.88717 27.175402 -2.458615
2012-03-15 07:29:01 51°13.635 2°56.019 13.0471 3.886963 27.17428 -2.458615
2012-03-15 07:29:06 51°13.635 2°56.019 13.0491 3.886963 27.17428 -2.458615
2012-03-15 07:29:11 51°13.635 2°56.019 13.0543 3.88717 27.175889 -2.458615
2012-03-15 07:29:16 51°13.635 2°56.019 13.0543 3.88603 27.167525 -2.458615
2012-03-15 07:29:21 51°13.635 2°56.019 13.0552 3.886755 27.173157 -2.458615
2012-03-15 07:29:26 51°13.635 2°56.019 13.058 3.88603 27.168011 -2.458615
2012-03-15 07:29:31 51°13.635 2°56.019 13.0577 3.885823 27.166889 -2.458615
2012-03-15 07:29:36 51°13.635 2°56.019 13.0551 3.885823 27.166889 -2.458615
2012-03-15 07:29:41 51°13.635 2°56.019 13.0577 3.885823 27.166889 -2.458615
2012-03-15 07:29:46 51°13.635 2°56.019 13.0549 3.885098 27.161743 -2.458615
2012-03-15 07:29:51 51°13.635 2°56.019 13.0585 3.886652 27.173813 -2.458615
2012-03-15 07:29:56 51°13.635 2°56.019 13.057 3.886341 27.171399 -2.458615
2012-03-15 07:30:01 51°13.635 2°56.019 13.0591 3.885201 27.163034 -2.458615
2012-03-15 07:30:06 51°13.635 2°56.019 13.0587 3.885201 27.163034 -2.458615
2012-03-15 07:30:11 51°13.635 2°56.019 13.0576 3.884994 27.161911 -2.458615
2012-03-15 07:30:16 51°13.635 2°56.019 13.0556 3.886755 27.175591 -2.458615
2012-03-15 07:30:21 51°13.635 2°56.019 13.055 3.885616 27.167226 -2.458615
2012-03-15 07:30:25 51°13.635 2°56.019 13.0544 3.886445 27.174151 -2.458615
2012-03-15 07:30:31 51°13.635 2°56.019 13.0516 3.886548 27.174956 -2.458615
2012-03-15 07:30:36 51°13.635 2°56.019 13.053 3.886548 27.174956 -2.458615
2012-03-15 07:30:41 51°13.636 2°56.019 13.0518 3.885512 27.167395 -2.458615
2012-03-15 07:30:46 51°13.635 2°56.019 13.0559 3.885719 27.169491 -2.458615
2012-03-15 07:30:51 51°13.635 2°56.019 13.0559 3.885409 27.167077 -2.458615
2012-03-15 07:30:56 51°13.636 2°56.019 13.0558 3.885512 27.168369 -2.458615
2012-03-15 07:31:01 51°13.635 2°56.019 13.0592 3.883647 27.153883 -2.458615
2012-03-15 07:31:06 51°13.635 2°56.019 13.0594 3.883647 27.153883 -2.458615
2012-03-15 07:31:11 51°13.635 2°56.019 13.0591 3.884891 27.164027 -2.458615
2012-03-15 07:31:16 51°13.635 2°56.019 13.0596 3.884891 27.164027 -2.458615
2012-03-15 07:31:21 51°13.635 2°56.019 13.0607 3.885409 27.168537 -2.458615
2012-03-15 07:31:26 51°13.635 2°56.019 13.0598 3.885409 27.168537 -2.458615
2012-03-15 07:31:31 51°13.635 2°56.019 13.0587 3.88603 27.173853 -2.458615
2012-03-15 07:31:36 51°13.635 2°56.019 13.0601 3.88603 27.173853 -2.458615
2012-03-15 07:31:41 51°13.635 2°56.019 13.0585 3.885201 27.167901 -2.458615
2012-03-15 07:31:46 51°13.635 2°56.019 13.0604 3.885201 27.167901 -2.458615
2012-03-15 07:31:51 51°13.635 2°56.019 13.0584 3.885616 27.171608 -2.458615
2012-03-15 07:31:56 51°13.636 2°56.019 13.056 3.885098 27.167584 -2.458615
2012-03-15 07:32:01 51°13.635 2°56.019 13.0567 3.886237 27.176924 -2.458615
2012-03-15 07:32:06 51°13.635 2°56.019 13.0569 3.886237 27.176924 -2.458615
2012-03-15 07:32:11 51°13.635 2°56.019 13.0577 3.886341 27.177729 -2.458615
2012-03-15 07:32:16 51°13.635 2°56.019 13.0562 3.886134 27.176606 -2.458615
2012-03-15 07:32:21 51°13.635 2°56.019 13.0561 3.885512 27.171777 -2.458615
2012-03-15 07:32:26 51°13.636 2°56.019 13.0584 3.885512 27.172264 -2.458615
2012-03-15 07:32:31 51°13.635 2°56.019 13.0619 3.884891 27.167434 -2.458615
2012-03-15 07:32:36 51°13.635 2°56.019 13.0598 3.884891 27.167434 -2.458615
2012-03-15 07:32:41 51°13.636 2°56.019 13.0547 3.886445 27.179995 -2.458615
2012-03-15 07:32:46 51°13.635 2°56.019 13.0551 3.887584 27.188849 -2.458615
2012-03-15 07:32:51 51°13.635 2°56.019 13.0543 3.88717 27.186117 -2.458615
2012-03-15 07:32:56 51°13.635 2°56.019 13.0561 3.886445 27.180969 -2.458615
2012-03-15 07:33:01 51°13.635 2°56.019 13.0619 3.888102 27.194336 -2.458615
2012-03-15 07:33:06 51°13.635 2°56.019 13.0639 3.888102 27.194336 -2.458615
2012-03-15 07:33:11 51°13.635 2°56.019 13.0645 3.885616 27.175017 -2.458615
2012-03-15 07:33:16 51°13.635 2°56.019 13.0677 3.885616 27.175017 -2.458615
2012-03-15 07:33:21 51°13.635 2°56.02 13.0697 3.885098 27.171479 -2.458615
2012-03-15 07:33:26 51°13.636 2°56.02 13.0703 3.885719 27.176309 -2.458615
2012-03-15 07:33:31 51°13.635 2°56.019 13.0715 3.885305 27.173576 -2.458615
2012-03-15 07:33:36 51°13.635 2°56.02 13.0719 3.885305 27.173576 -2.458615
2012-03-15 07:33:41 51°13.635 2°56.019 13.0739 3.884787 27.169551 -2.458615
2012-03-15 07:33:46 51°13.635 2°56.019 13.0765 3.884994 27.171648 -2.458615
2012-03-15 07:33:51 51°13.635 2°56.019 13.0735 3.88458 27.168428 -2.458615
2012-03-15 07:33:56 51°13.635 2°56.019 13.0771 3.88344 27.160061 -2.458615
2012-03-15 07:34:01 51°13.635 2°56.019 13.0793 3.884683 27.170207 -2.458615
2012-03-15 07:34:06 51°13.635 2°56.019 13.0771 3.884683 27.170207 -2.458615
2012-03-15 07:34:11 51°13.635 2°56.019 13.0802 3.884165 27.166182 -2.458615
2012-03-15 07:34:16 51°13.635 2°56.019 13.0783 3.883958 27.165059 -2.458615
2012-03-15 07:34:21 51°13.635 2°56.019 13.0741 3.885098 27.173914 -2.458615
2012-03-15 07:34:25 51°13.634 2°56.018 13.0751 3.884787 27.171986 -2.458615
2012-03-15 07:34:31 51°13.634 2°56.018 13.0727 3.884787 27.171986 -2.458615
2012-03-15 07:34:36 51°13.634 2°56.018 13.057 3.884787 27.171986 -2.458615
2012-03-15 07:34:41 51°13.634 2°56.018 13.0479 3.886756 27.187769 -2.458615
2012-03-15 07:34:46 51°13.635 2°56.018 13.0363 3.887895 27.196626 -2.458615
2012-03-15 07:34:51 51°13.636 2°56.017 13.0166 3.897738 27.273618 -2.458615
2012-03-15 07:34:56 51°13.635 2°56.015 12.8878 3.901157 27.3002 -2.458615
2012-03-15 07:35:01 51°13.636 2°56.012 13.0553 3.89235 27.232226 -2.458615
2012-03-15 07:35:05 51°13.637 2°56.009 12.9863 3.89235 27.232226 -2.458615
2012-03-15 07:35:11 51°13.637 2°56.004 13.0452 3.900328 27.294734 -2.458615
2012-03-15 07:35:16 51°13.639 2°56 13.0455 3.89463 27.250432 -2.458615
2012-03-15 07:35:21 51°13.641 2°55.994 13.0853 3.89349 27.241573 -2.458615
2012-03-15 07:35:25 51°13.642 2°55.989 13.0702 3.891004 27.222733 -2.458615
2012-03-15 07:35:31 51°13.642 2°55.981 13.0786 3.886652 27.189401 -2.458615
2012-03-15 07:35:36 51°13.644 2°55.975 13.0854 3.886652 27.189401 -2.458615
2012-03-15 07:35:41 51°13.645 2°55.968 13.0919 3.889553 27.211947 -2.458615
2012-03-15 07:35:46 51°13.646 2°55.962 13.081 3.886548 27.189084 -2.458615
2012-03-15 07:35:51 51°13.647 2°55.955 13.0872 3.887067 27.19311 -2.458615
2012-03-15 07:35:56 51°13.648 2°55.948 13.0995 3.887377 27.196013 -2.458615
2012-03-15 07:36:01 51°13.649 2°55.941 13.1091 3.885409 27.180714 -2.458615
2012-03-15 07:36:06 51°13.651 2°55.933 13.1007 3.885409 27.180714 -2.458615
2012-03-15 07:36:11 51°13.652 2°55.926 13.1007 3.885616 27.182812 -2.458615
2012-03-15 07:36:16 51°13.654 2°55.919 13.0961 3.884269 27.172345 -2.458615
2012-03-15 07:36:21 51°13.656 2°55.911 13.0889 3.884062 27.171222 -2.458615
2012-03-15 07:36:26 51°13.658 2°55.904 13.0873 3.890278 27.219536 -2.458615
2012-03-15 07:36:31 51°13.66 2°55.896 13.0963 3.886445 27.190228 -2.458615
2012-03-15 07:36:36 51°13.662 2°55.888 13.0671 3.886445 27.190228 -2.458615
2012-03-15 07:36:41 51°13.665 2°55.88 13.0884 3.88945 27.21407 -2.458615
2012-03-15 07:36:46 51°13.668 2°55.872 13.0872 3.890175 27.219707 -2.458615
2012-03-15 07:36:51 51°13.671 2°55.863 13.0918 3.886756 27.193619 -2.458615
2012-03-15 07:36:56 51°13.674 2°55.854 13.0953 3.887481 27.199744 -2.458615
2012-03-15 07:37:01 51°13.678 2°55.845 13.1083 3.884891 27.179612 -2.458615
2012-03-15 07:37:05 51°13.681 2°55.838 13.108 3.884891 27.179612 -2.458615
2012-03-15 07:37:11 51°13.686 2°55.827 13.1329 3.882508 27.16158 -2.458615
2012-03-15 07:37:16 51°13.69 2°55.818 13.1202 3.886652 27.194277 -2.458615
2012-03-15 07:37:21 51°13.695 2°55.81 13.1697 3.877535 27.123423 -2.458615
2012-03-15 07:37:25 51°13.698 2°55.803 13.1617 3.877949 27.126643 -2.458615
2012-03-15 07:37:31 51°13.704 2°55.794 13.1592 3.871215 27.074809 -2.458615
2012-03-15 07:37:36 51°13.709 2°55.787 13.1734 3.871215 27.074809 -2.458615
2012-03-15 07:37:41 51°13.713 2°55.781 13.1199 3.862305 27.005607 -2.458615
2012-03-15 07:37:46 51°13.716 2°55.777 12.8791 3.878467 27.131154 -2.458615
2012-03-15 07:37:51 51°13.718 2°55.772 13.0575 3.863237 27.013817 -2.458615
2012-03-15 07:37:56 51°13.721 2°55.768 12.787 3.90955 27.374298 -2.458615
2012-03-15 07:38:01 51°13.724 2°55.763 13.0226 3.885202 27.185928 -2.458615
2012-03-15 07:38:06 51°13.728 2°55.757 12.884 3.885202 27.185928 -2.458615
2012-03-15 07:38:11 51°13.731 2°55.75 13.0347 3.89722 27.279372 -2.458615
2012-03-15 07:38:16 51°13.735 2°55.743 13.0353 3.890071 27.224272 -2.458615
2012-03-15 07:38:21 51°13.74 2°55.735 13.0609 3.881783 27.15984 -2.458615
2012-03-15 07:38:26 51°13.744 2°55.727 13.0405 3.891315 27.23345 -2.458615
2012-03-15 07:38:31 51°13.749 2°55.72 13.0609 3.883337 27.171432 -2.458615
2012-03-15 07:38:36 51°13.755 2°55.712 13.0559 3.883337 27.171432 -2.458615
2012-03-15 07:38:41 51°13.76 2°55.704 13.0654 3.885202 27.185928 -2.458615
2012-03-15 07:38:46 51°13.766 2°55.696 13.0648 3.88344 27.172725 -2.458615
2012-03-15 07:38:51 51°13.773 2°55.688 13.0667 3.879814 27.144541 -2.458615
2012-03-15 07:38:56 51°13.779 2°55.681 13.0716 3.884787 27.183682 -2.458615
2012-03-15 07:39:01 51°13.786 2°55.674 13.0782 3.878675 27.136657 -2.458615
2012-03-15 07:39:06 51°13.793 2°55.667 13.083 3.878675 27.136657 -2.458615
2012-03-15 07:39:11 51°13.8 2°55.66 13.1009 3.878882 27.138755 -2.458615
2012-03-15 07:39:16 51°13.808 2°55.654 13.0706 3.880021 27.148099 -2.458615
2012-03-15 07:39:21 51°13.816 2°55.648 13.0807 3.87712 27.12604 -2.458615
2012-03-15 07:39:25 51°13.822 2°55.644 13.0819 3.877328 27.128137 -2.458615
2012-03-15 07:39:31 51°13.831 2°55.638 13.076 3.874841 27.109299 -2.458615
2012-03-15 07:39:36 51°13.84 2°55.634 13.0884 3.874841 27.109299 -2.458615
2012-03-15 07:39:41 51°13.848 2°55.631 13.0865 3.875566 27.115421 -2.458615
2012-03-15 07:39:46 51°13.857 2°55.628 13.0888 3.875877 27.118323 -2.458615
2012-03-15 07:39:51 51°13.865 2°55.627 13.0921 3.872562 27.092559 -2.458615
2012-03-15 07:39:56 51°13.874 2°55.626 13.0839 3.873391 27.099486 -2.458615
2012-03-15 07:40:01 51°13.882 2°55.626 13.0828 3.87308 27.09707 -2.458615
2012-03-15 07:40:06 51°13.89 2°55.628 13.0761 3.87308 27.09707 -2.458615
2012-03-15 07:40:11 51°13.898 2°55.629 13.0811 3.873287 27.098681 -2.458615
2012-03-15 07:40:16 51°13.905 2°55.632 13.086 3.873184 27.098362 -2.458615
2012-03-15 07:40:21 51°13.912 2°55.634 13.0818 3.872666 27.094336 -2.458615
2012-03-15 07:40:26 51°13.919 2°55.638 13.0808 3.873598 27.102068 -2.458615
2012-03-15 07:40:31 51°13.926 2°55.641 13.0824 3.869972 27.074375 -2.458615
2012-03-15 07:40:36 51°13.932 2°55.645 13.0772 3.869972 27.074375 -2.458615
2012-03-15 07:40:41 51°13.938 2°55.649 13.0686 3.868418 27.062785 -2.458615
2012-03-15 07:40:46 51°13.943 2°55.652 13.0879 3.871733 27.088548 -2.458615
2012-03-15 07:40:51 51°13.948 2°55.657 13.0668 3.871837 27.089839 -2.458615
2012-03-15 07:40:56 51°13.953 2°55.661 13.0728 3.8679 27.059246 -2.458615
2012-03-15 07:41:01 51°13.958 2°55.665 13.1028 3.858058 26.983269 -2.458615
2012-03-15 07:41:06 51°13.961 2°55.668 13.1084 3.858058 26.983269 -2.458615
2012-03-15 07:41:11 51°13.964 2°55.671 13.1037 3.861787 27.01224 -2.458615
2012-03-15 07:41:16 51°13.966 2°55.673 13.0999 3.862927 27.021094 -2.458615
2012-03-15 07:41:21 51°13.968 2°55.675 13.1021 3.861062 27.006607 -2.458615
2012-03-15 07:41:25 51°13.969 2°55.676 13.1005 3.861787 27.01224 -2.458615
2012-03-15 07:41:31 51°13.97 2°55.676 13.1124 3.858576 26.987292 -2.458615
2012-03-15 07:41:36 51°13.971 2°55.675 13.0997 3.858576 26.987292 -2.458615
2012-03-15 07:41:41 51°13.971 2°55.674 13.0952 3.861269 27.008216 -2.458615
2012-03-15 07:41:45 51°13.971 2°55.673 13.0953 3.860337 27.000973 -2.458615
2012-03-15 07:41:51 51°13.972 2°55.67 13.0172 3.866139 27.046531 -2.458615
2012-03-15 07:41:56 51°13.972 2°55.667 12.8163 3.866864 27.052652 -2.458615
2012-03-15 07:42:01 51°13.972 2°55.664 12.736 3.867693 27.059578 -2.458615
2012-03-15 07:42:06 51°13.973 2°55.66 12.7862 3.867693 27.059578 -2.458615
2012-03-15 07:42:10 51°13.973 2°55.657 12.6866 3.868729 27.0686 -2.458615
2012-03-15 07:42:16 51°13.974 2°55.651 12.9096 3.868625 27.06828 -2.458615
2012-03-15 07:42:21 51°13.976 2°55.646 12.8726 3.87163 27.092117 -2.458615
2012-03-15 07:42:26 51°13.977 2°55.64 12.8946 3.865621 27.045903 -2.458615
2012-03-15 07:42:31 51°13.98 2°55.635 12.9679 3.868418 27.068127 -2.458615
2012-03-15 07:42:36 51°13.983 2°55.628 12.9502 3.868418 27.068127 -2.458615
2012-03-15 07:42:41 51°13.986 2°55.621 12.9345 3.865931 27.049289 -2.458615
2012-03-15 07:42:46 51°13.99 2°55.614 12.9368 3.869661 27.078275 -2.458615
2012-03-15 07:42:51 51°13.994 2°55.607 12.9412 3.872976 27.104045 -2.458615
2012-03-15 07:42:56 51°13.998 2°55.599 12.9533 3.866346 27.052509 -2.458615
2012-03-15 07:43:01 51°14.004 2°55.591 12.9233 3.871319 27.091159 -2.458615
2012-03-15 07:43:06 51°14.009 2°55.583 12.9418 3.871319 27.091159 -2.458615
2012-03-15 07:43:11 51°14.015 2°55.575 12.9486 3.870801 27.087619 -2.458615
2012-03-15 07:43:16 51°14.021 2°55.566 12.9455 3.862823 27.025622 -2.458615
2012-03-15 07:43:21 51°14.027 2°55.557 12.8609 3.869143 27.074735 -2.458615
2012-03-15 07:43:25 51°14.033 2°55.55 12.8103 3.867071 27.058631 -2.458615
2012-03-15 07:43:31 51°14.041 2°55.539 12.7766 3.868729 27.071514 -2.458615
2012-03-15 07:43:36 51°14.049 2°55.53 12.7607 3.868729 27.071514 -2.458615
2012-03-15 07:43:41 51°14.056 2°55.52 12.719 3.874323 27.115001 -2.458615
2012-03-15 07:43:45 51°14.063 2°55.513 12.7792 3.871319 27.091646 -2.458615
2012-03-15 07:43:51 51°14.073 2°55.503 12.8244 3.870801 27.088105 -2.458615
2012-03-15 07:43:56 51°14.082 2°55.494 9.954 4.274091 30.253277 -2.458615
2012-03-15 07:44:01 51°14.09 2°55.485 9.3532 4.190109 29.584345 -2.458615
2012-03-15 07:44:06 51°14.099 2°55.475 8.5317 4.190109 29.584345 -2.458615
2012-03-15 07:44:10 51°14.106 2°55.467 8.0306 4.463777 31.811819 -2.458615
2012-03-15 07:44:16 51°14.117 2°55.456 7.7345 4.297445 31.652629 -2.458615
2012-03-15 07:44:21 51°14.126 2°55.448 7.547 4.248125 33.322497 -2.458615
2012-03-15 07:44:26 51°14.136 2°55.44 7.3778 4.039586 33.561662 -2.458615
2012-03-15 07:44:31 51°14.145 2°55.43 7.2458 3.529536 30.094144 -2.458615
2012-03-15 07:44:36 51°14.154 2°55.42 7.1546 3.529536 30.094144 -2.458615
2012-03-15 07:44:41 51°14.164 2°55.411 7.1145 3.300687 28.812344 -2.458615
2012-03-15 07:44:46 51°14.174 2°55.403 7.0683 3.213881 28.830881 -2.458615
2012-03-15 07:44:51 51°14.184 2°55.392 6.9924 3.123877 28.42555 -2.458615
2012-03-15 07:44:56 51°14.193 2°55.382 6.9511 3.058715 28.299356 -2.458615
2012-03-15 07:45:01 51°14.202 2°55.372 6.9387 2.951157 27.547099 -2.458615
2012-03-15 07:45:06 51°14.211 2°55.362 6.8676 2.951157 27.547099 -2.458615
2012-03-15 07:45:10 51°14.219 2°55.354 6.819 2.976083 27.99364 -2.458615
2012-03-15 07:45:16 51°14.231 2°55.343 6.7925 2.910935 27.493828 -2.458615
2012-03-15 07:45:21 51°14.241 2°55.333 6.7626 2.86027 27.082994 -2.458615
2012-03-15 07:45:25 51°14.249 2°55.325 6.7369 2.809301 26.654689 -2.458615
2012-03-15 07:45:31 51°14.261 2°55.313 6.7196 2.738489 26.007107 -2.458615
2012-03-15 07:45:36 51°14.271 2°55.303 6.7121 2.738489 26.007107 -2.458615
2012-03-15 07:45:41 51°14.281 2°55.293 6.7041 2.69828 25.659119 -2.458615
2012-03-15 07:45:46 51°14.292 2°55.281 6.6439 2.680607 25.51732 -2.458615
2012-03-15 07:45:51 51°14.303 2°55.271 6.6391 2.637096 25.111402 -2.458615
2012-03-15 07:45:56 51°14.313 2°55.259 6.6134 2.609193 24.857586 -2.458615
2012-03-15 07:46:01 51°14.324 2°55.248 6.6181 2.573645 24.528654 -2.458615
2012-03-15 07:46:05 51°14.332 2°55.239 6.5873 2.573645 24.528654 -2.458615
2012-03-15 07:46:11 51°14.345 2°55.225 6.5383 2.550292 24.309219 -2.458615
2012-03-15 07:46:16 51°14.356 2°55.214 6.5178 2.496357 23.772379 -2.458615
2012-03-15 07:46:21 51°14.367 2°55.203 6.5132 2.510306 23.947311 -2.458615
2012-03-15 07:46:26 51°14.378 2°55.192 6.4831 2.479207 23.646251 -2.458615
2012-03-15 07:46:31 51°14.389 2°55.181 6.4706 2.45276 23.392471 -2.458615
2012-03-15 07:46:36 51°14.4 2°55.17 6.4905 2.45276 23.392471 -2.458615
2012-03-15 07:46:41 51°14.412 2°55.159 6.4552 2.423111 23.103222 -2.458615
2012-03-15 07:46:46 51°14.423 2°55.147 6.4395 2.377763 22.652439 -2.458615
2012-03-15 07:46:51 51°14.435 2°55.136 6.4286 2.369707 22.584293 -2.458615
2012-03-15 07:46:56 51°14.447 2°55.125 6.4016 2.324364 22.134793 -2.458615
2012-03-15 07:47:01 51°14.459 2°55.114 6.4107 2.318064 22.087733 -2.458615
2012-03-15 07:47:06 51°14.471 2°55.102 6.3962 2.318064 22.087733 -2.458615
2012-03-15 07:47:11 51°14.484 2°55.091 6.3956 2.302675 21.942164 -2.458615
2012-03-15 07:47:16 51°14.496 2°55.08 6.3732 2.274275 21.657286 -2.458615
2012-03-15 07:47:21 51°14.508 2°55.068 6.3871 2.263122 21.553415 -2.458615
2012-03-15 07:47:25 51°14.519 2°55.059 6.3833 2.251762 21.456135 -2.458615
2012-03-15 07:47:30 51°14.531 2°55.047 6.3608 2.236376 21.300422 -2.458615
2012-03-15 07:47:35 51°14.544 2°55.035 6.3496 2.236376 21.300422 -2.458615
2012-03-15 07:47:40 51°14.557 2°55.022 6.3739 2.230696 21.251703 -2.458615
2012-03-15 07:47:45 51°14.57 2°55.01 6.3641 2.226463 21.216865 -2.458615
2012-03-15 07:47:49 51°14.581 2°55 6.3436 2.220887 21.166272 -2.458615
2012-03-15 07:47:55 51°14.596 2°54.984 6.3432 2.202816 20.983144 -2.458615
2012-03-15 07:47:59 51°14.607 2°54.973 6.3397 2.200029 20.958692 -2.458615
2012-03-15 07:48:04 51°14.619 2°54.959 6.3439 2.200029 20.958692 -2.458615
2012-03-15 07:48:09 51°14.632 2°54.945 6.3343 2.193937 20.904392 -2.458615
2012-03-15 07:48:14 51°14.645 2°54.931 6.3363 2.195279 20.924112 -2.458615
2012-03-15 07:48:19 51°14.658 2°54.917 6.3242 2.171531 20.680707 -2.458615
2012-03-15 07:48:24 51°14.67 2°54.903 6.3285 2.144893 20.410275 -2.458615
2012-03-15 07:48:29 51°14.682 2°54.888 6.3313 2.123625 20.196417 -2.458615
2012-03-15 07:48:33 51°14.692 2°54.875 6.3388 2.123625 20.196417 -2.458615
2012-03-15 07:48:38 51°14.705 2°54.86 6.3331 2.059826 19.534088 -2.458615
2012-03-15 07:48:43 51°14.717 2°54.844 6.3334 2.035156 19.281987 -2.458615
2012-03-15 07:48:48 51°14.73 2°54.829 6.3272 2.02535 19.186921 -2.458615
2012-03-15 07:48:53 51°14.743 2°54.815 6.3203 2.027517 19.213026 -2.458615
2012-03-15 07:48:57 51°14.754 2°54.803 6.3258 2.008422 19.015635 -2.458615
2012-03-15 07:49:03 51°14.77 2°54.785 6.3343 2.008422 19.015635 -2.458615
2012-03-15 07:49:07 51°14.781 2°54.773 6.3528 2.003777 18.967654 -2.458615
2012-03-15 07:49:12 51°14.794 2°54.757 6.3441 2.005532 18.985779 -2.458615
2012-03-15 07:49:17 51°14.808 2°54.742 6.3471 1.996552 18.895637 -2.458615
2012-03-15 07:49:22 51°14.823 2°54.726 6.3353 2.015338 19.091814 -2.458615
2012-03-15 07:49:27 51°14.837 2°54.711 6.328 1.99325 18.864644 -2.458615
2012-03-15 07:49:32 51°14.852 2°54.696 6.3282 1.99325 18.864644 -2.458615
2012-03-15 07:49:37 51°14.866 2°54.68 6.326 2.013686 19.075789 -2.458615
2012-03-15 07:49:42 51°14.881 2°54.664 6.335 1.985921 18.786928 -2.458615
2012-03-15 07:49:47 51°14.896 2°54.648 6.326 1.980245 18.726297 -2.458615
2012-03-15 07:49:52 51°14.911 2°54.633 6.3196 1.988398 18.808879 -2.458615
2012-03-15 07:49:57 51°14.926 2°54.616 6.3245 1.995004 18.88017 -2.458615
2012-03-15 07:50:02 51°14.94 2°54.599 6.3331 1.995004 18.88017 -2.458615
2012-03-15 07:50:07 51°14.954 2°54.581 6.3333 1.976426 18.6905 -2.458615
2012-03-15 07:50:13 51°14.972 2°54.56 6.3456 1.975188 18.681829 -2.458615
2012-03-15 07:50:17 51°14.983 2°54.546 6.3489 1.970543 18.634431 -2.458615
2012-03-15 07:50:22 51°14.997 2°54.528 6.3517 1.970337 18.634349 -2.458615
2012-03-15 07:50:27 51°15.011 2°54.511 6.3435 1.979316 18.729571 -2.458615
2012-03-15 07:50:32 51°15.026 2°54.495 6.3539 1.979316 18.729571 -2.458615
2012-03-15 07:50:37 51°15.04 2°54.478 6.3609 1.966931 18.602796 -2.458615
2012-03-15 07:50:42 51°15.055 2°54.461 6.3648 1.966105 18.593769 -2.458615
2012-03-15 07:50:47 51°15.069 2°54.445 6.3655 1.961874 18.549108 -2.458615
2012-03-15 07:50:52 51°15.084 2°54.429 6.3734 1.975807 18.690271 -2.458615
2012-03-15 07:50:57 51°15.098 2°54.413 6.3687 1.953824 18.461046 -2.458615
2012-03-15 07:51:02 51°15.113 2°54.397 6.3784 1.953824 18.461046 -2.458615
2012-03-15 07:51:07 51°15.128 2°54.383 6.3652 1.956507 18.489205 -2.458615
2012-03-15 07:51:12 51°15.144 2°54.369 6.364 1.982515 18.754871 -2.458615
2012-03-15 07:51:17 51°15.159 2°54.355 6.3664 1.937827 18.291771 -2.458615
2012-03-15 07:51:23 51°15.177 2°54.338 6.3604 1.944226 18.356629 -2.458615
2012-03-15 07:51:27 51°15.189 2°54.326 6.3654 1.938653 18.297254 -2.458615
2012-03-15 07:51:32 51°15.203 2°54.31 6.3602 1.938653 18.297254 -2.458615
2012-03-15 07:51:37 51°15.218 2°54.296 6.354 2.008112 19.01087 -2.458615
2012-03-15 07:51:41 51°15.23 2°54.283 6.3646 1.924721 18.150453 -2.458615
2012-03-15 07:51:47 51°15.248 2°54.265 6.3558 1.949799 18.410475 -2.458615
2012-03-15 07:51:52 51°15.263 2°54.25 6.3562 2.581917 25.031875 -2.458615
2012-03-15 07:51:57 51°15.278 2°54.236 6.3579 2.953863 29.032527 -2.458615
2012-03-15 07:52:02 51°15.293 2°54.221 6.3419 2.953863 29.032527 -2.458615
2012-03-15 07:52:07 51°15.308 2°54.205 6.3452 3.00878 29.632309 -2.458615
2012-03-15 07:52:12 51°15.322 2°54.189 6.3408 3.028224 29.845564 -2.458615
2012-03-15 07:52:17 51°15.336 2°54.173 6.3248 3.037637 29.94972 -2.458615
2012-03-15 07:52:22 51°15.351 2°54.157 6.316 3.045601 30.036501 -2.458615
2012-03-15 07:52:27 51°15.364 2°54.139 6.3068 3.050566 30.094753 -2.458615
2012-03-15 07:52:32 51°15.377 2°54.121 6.2932 3.050566 30.094753 -2.458615
2012-03-15 07:52:37 51°15.39 2°54.102 6.3115 3.052841 30.123706 -2.458615
2012-03-15 07:52:42 51°15.403 2°54.083 6.2875 3.05429 30.143643 -2.458615
2012-03-15 07:52:47 51°15.416 2°54.065 6.2794 3.057289 30.181345 -2.458615
2012-03-15 07:52:53 51°15.432 2°54.043 6.2774 3.058531 30.20403 -2.458615
2012-03-15 07:52:57 51°15.442 2°54.027 6.2657 3.058324 30.209255 -2.458615
2012-03-15 07:53:02 51°15.454 2°54.008 6.2709 3.058324 30.209255 -2.458615
2012-03-15 07:53:07 51°15.467 2°53.989 6.2556 3.05791 30.213888 -2.458615
2012-03-15 07:53:13 51°15.483 2°53.967 6.2466 3.057186 30.21347 -2.458615
2012-03-15 07:53:17 51°15.493 2°53.952 6.2399 3.0546 30.19188 -2.458615
2012-03-15 07:53:22 51°15.506 2°53.934 6.2455 3.052842 30.18182 -2.458615
2012-03-15 07:53:27 51°15.52 2°53.916 6.2351 3.051911 30.179135 -2.458615
2012-03-15 07:53:32 51°15.533 2°53.897 6.2291 3.051911 30.179135 -2.458615
2012-03-15 07:53:37 51°15.547 2°53.879 6.2343 3.05098 30.174785 -2.458615
2012-03-15 07:53:41 51°15.558 2°53.866 6.2368 3.049843 30.170669 -2.458615
2012-03-15 07:53:47 51°15.575 2°53.846 6.2348 3.048705 30.161559 -2.458615
2012-03-15 07:53:52 51°15.59 2°53.831 6.2329 3.047671 30.156906 -2.458615
2012-03-15 07:53:57 51°15.605 2°53.815 6.2367 3.046947 30.153149 -2.458615
2012-03-15 07:54:02 51°15.62 2°53.799 6.2414 3.046947 30.153149 -2.458615
2012-03-15 07:54:07 51°15.635 2°53.784 6.2294 3.046636 30.155581 -2.458615
2012-03-15 07:54:12 51°15.65 2°53.768 6.2313 3.047671 30.170226 -2.458615
2012-03-15 07:54:17 51°15.665 2°53.753 6.2379 3.048912 30.184639 -2.458615
2012-03-15 07:54:22 51°15.68 2°53.738 6.2345 3.049326 30.189999 -2.458615
2012-03-15 07:54:27 51°15.695 2°53.722 6.2334 3.049636 30.194228 -2.458615
2012-03-15 07:54:32 51°15.709 2°53.706 6.2328 3.049636 30.194228 -2.458615
2012-03-15 07:54:37 51°15.723 2°53.689 6.2398 3.049946 30.197623 -2.458615
2012-03-15 07:54:42 51°15.738 2°53.673 6.2292 3.050567 30.206082 -2.458615
2012-03-15 07:54:48 51°15.756 2°53.653 6.2321 3.05305 30.235754 -2.458615
2012-03-15 07:54:53 51°15.769 2°53.635 6.2345 3.05367 30.242547 -2.458615
2012-03-15 07:54:57 51°15.78 2°53.621 6.2302 3.053463 30.241117 -2.458615
2012-03-15 07:55:02 51°15.794 2°53.604 6.23 3.053463 30.241117 -2.458615
2012-03-15 07:55:07 51°15.808 2°53.586 6.2239 3.05305 30.235754 -2.458615
2012-03-15 07:55:13 51°15.824 2°53.565 6.2213 3.054394 30.252978 -2.458615
2012-03-15 07:55:17 51°15.835 2°53.551 6.2193 3.054498 30.254946 -2.458615
2012-03-15 07:55:22 51°15.85 2°53.535 6.2135 3.054291 30.253517 -2.458615
2012-03-15 07:55:27 51°15.864 2°53.518 6.2116 3.053463 30.245294 -2.458615
2012-03-15 07:55:33 51°15.881 2°53.499 6.2098 3.053463 30.245294 -2.458615
2012-03-15 07:55:37 51°15.893 2°53.486 6.1968 3.05336 30.245832 -2.458615
2012-03-15 07:55:41 51°15.905 2°53.473 6.19 3.052946 30.242138 -2.458615
2012-03-15 07:55:47 51°15.922 2°53.454 6.1964 3.055015 30.267295 -2.458615
2012-03-15 07:55:52 51°15.937 2°53.438 6.1952 3.055946 30.281671 -2.458615
2012-03-15 07:55:57 51°15.951 2°53.421 6.1852 3.057084 30.297481 -2.458615
2012-03-15 07:56:02 51°15.965 2°53.405 6.1891 3.057084 30.297481 -2.458615
2012-03-15 07:56:07 51°15.98 2°53.389 6.1844 3.058015 30.311866 -2.458615
2012-03-15 07:56:12 51°15.994 2°53.372 6.1861 3.058946 30.327095 -2.458615
2012-03-15 07:56:17 51°16.008 2°53.355 6.1741 3.05998 30.34514 -2.458615
2012-03-15 07:56:22 51°16.023 2°53.339 6.1841 3.061739 30.369453 -2.458615
2012-03-15 07:56:27 51°16.036 2°53.322 6.1777 3.062359 30.377938 -2.458615
2012-03-15 07:56:32 51°16.05 2°53.304 6.18 3.062359 30.377938 -2.458615
2012-03-15 07:56:37 51°16.064 2°53.286 6.1726 3.063808 30.399702 -2.458615
2012-03-15 07:56:42 51°16.078 2°53.269 6.1763 3.064945 30.414705 -2.458615
2012-03-15 07:56:47 51°16.091 2°53.25 6.1732 3.065566 30.42488 -2.458615
2012-03-15 07:56:53 51°16.107 2°53.228 6.1736 3.066497 30.439304 -2.458615
2012-03-15 07:56:57 51°16.118 2°53.214 6.1783 3.067428 30.451204 -2.458615
2012-03-15 07:57:02 51°16.131 2°53.195 6.1753 3.067428 30.451204 -2.458615
2012-03-15 07:57:07 51°16.145 2°53.176 6.1772 3.068049 30.458858 -2.458615
2012-03-15 07:57:12 51°16.158 2°53.158 6.1766 3.068566 30.467063 -2.458615
2012-03-15 07:57:17 51°16.171 2°53.139 6.1726 3.068876 30.472156 -2.458615
2012-03-15 07:57:22 51°16.185 2°53.121 6.1718 3.06929 30.477541 -2.458615
2012-03-15 07:57:27 51°16.199 2°53.104 6.1717 3.069187 30.477249 -2.458615
2012-03-15 07:57:32 51°16.213 2°53.087 6.1714 3.069187 30.477249 -2.458615
2012-03-15 07:57:37 51°16.228 2°53.071 6.1715 3.069393 30.47952 -2.458615
2012-03-15 07:57:42 51°16.243 2°53.055 6.1748 3.069497 30.4815 -2.458615
2012-03-15 07:57:47 51°16.257 2°53.04 6.1744 3.072186 30.51018 -2.458615
2012-03-15 07:57:53 51°16.275 2°53.022 6.1706 3.07291 30.518975 -2.458615
2012-03-15 07:57:57 51°16.288 2°53.011 6.1689 3.074152 30.534294 -2.458615
2012-03-15 07:58:02 51°16.303 2°52.997 6.1678 3.074152 30.534294 -2.458615
2012-03-15 07:58:07 51°16.318 2°52.983 6.1663 3.074772 30.541955 -2.458615
2012-03-15 07:58:12 51°16.334 2°52.969 6.1662 3.075083 30.545362 -2.458615
2012-03-15 07:58:17 51°16.35 2°52.956 6.1713 3.074669 30.541664 -2.458615
2012-03-15 07:58:22 51°16.365 2°52.941 6.1792 3.074979 30.545072 -2.458615
2012-03-15 07:58:27 51°16.381 2°52.927 6.1731 3.074255 30.538812 -2.458615
2012-03-15 07:58:32 51°16.396 2°52.913 6.1759 3.074255 30.538812 -2.458615
2012-03-15 07:58:37 51°16.412 2°52.9 6.1705 3.076221 30.560396 -2.458615
2012-03-15 07:58:42 51°16.428 2°52.887 6.1788 3.075703 30.556408 -2.458615
2012-03-15 07:58:47 51°16.443 2°52.872 6.1744 3.076014 30.560662 -2.458615
2012-03-15 07:58:52 51°16.458 2°52.856 6.1727 3.078083 30.583387 -2.458615
2012-03-15 07:58:57 51°16.473 2°52.84 6.1764 3.07891 30.59163 -2.458615
2012-03-15 07:59:02 51°16.488 2°52.825 6.1774 3.07891 30.59163 -2.458615
2012-03-15 07:59:07 51°16.502 2°52.809 6.1768 3.080255 30.606402 -2.458615
2012-03-15 07:59:12 51°16.516 2°52.792 6.1761 3.081082 30.615494 -2.458615
2012-03-15 07:59:17 51°16.53 2°52.775 6.177 3.081186 30.61663 -2.458615
2012-03-15 07:59:22 51°16.544 2°52.757 6.1801 3.081393 30.618903 -2.458615
2012-03-15 07:59:27 51°16.558 2°52.74 6.1797 3.081703 30.62316 -2.458615
2012-03-15 07:59:32 51°16.572 2°52.723 6.1823 3.081703 30.62316 -2.458615
2012-03-15 07:59:37 51°16.587 2°52.707 6.1843 3.082531 30.632252 -2.458615
2012-03-15 07:59:42 51°16.602 2°52.692 6.1826 3.082841 30.634814 -2.458615
2012-03-15 07:59:47 51°16.617 2°52.677 6.1828 3.083255 30.640208 -2.458615
2012-03-15 07:59:53 51°16.635 2°52.659 6.1878 3.084806 30.656408 -2.458615
2012-03-15 07:59:57 51°16.647 2°52.648 6.188 3.084806 30.65556 -2.458615
2012-03-15 08:00:02 51°16.663 2°52.634 6.1877 3.084806 30.65556 -2.458615
2012-03-15 08:00:07 51°16.678 2°52.621 6.1838 3.086358 30.670062 -2.458615
2012-03-15 08:00:13 51°16.697 2°52.605 6.19 3.087082 30.676319 -2.458615
2012-03-15 08:00:17 51°16.709 2°52.594 6.1896 3.086668 30.670924 -2.458615
2012-03-15 08:00:22 51°16.725 2°52.581 6.1895 3.087599 30.680303 -2.458615
2012-03-15 08:00:27 51°16.741 2°52.569 6.1905 3.090082 30.705882 -2.458615
2012-03-15 08:00:32 51°16.756 2°52.555 6.1899 3.090082 30.705882 -2.458615
2012-03-15 08:00:37 51°16.771 2°52.541 6.1898 3.090599 30.709865 -2.458615
2012-03-15 08:00:41 51°16.783 2°52.529 6.1882 3.091116 30.715548 -2.458615
2012-03-15 08:00:47 51°16.802 2°52.512 6.1914 3.087909 30.680316 -2.458615
2012-03-15 08:00:52 51°16.817 2°52.498 6.1913 3.07891 30.580623 -2.458615
2012-03-15 08:00:57 51°16.832 2°52.484 6.1907 3.092668 30.731747 -2.458615
2012-03-15 08:01:02 51°16.847 2°52.469 6.1941 3.092668 30.731747 -2.458615
2012-03-15 08:01:07 51°16.862 2°52.456 6.1906 3.092564 30.72976 -2.458615
2012-03-15 08:01:12 51°16.878 2°52.442 6.1899 3.096806 30.777218 -2.458615
2012-03-15 08:01:17 51°16.893 2°52.428 6.191 3.095875 30.766134 -2.458615
2012-03-15 08:01:22 51°16.908 2°52.415 6.1942 3.10053 30.819003 -2.458615
2012-03-15 08:01:27 51°16.923 2°52.401 6.19 3.101564 30.829521 -2.458615
2012-03-15 08:01:32 51°16.939 2°52.388 6.192 3.101564 30.829521 -2.458615
2012-03-15 08:01:37 51°16.955 2°52.374 6.1963 3.108392 30.903731 -2.458615
2012-03-15 08:01:42 51°16.97 2°52.36 6.1904 3.11015 30.923069 -2.458615
2012-03-15 08:01:48 51°16.988 2°52.344 6.1898 3.111392 30.936721 -2.458615
2012-03-15 08:01:53 51°17.004 2°52.329 6.1987 3.111185 30.933589 -2.458615
2012-03-15 08:01:57 51°17.016 2°52.319 6.2008 3.111288 30.934727 -2.458615
2012-03-15 08:02:02 51°17.031 2°52.303 6.1923 3.111288 30.934727 -2.458615
2012-03-15 08:02:07 51°17.046 2°52.287 6.1934 3.113978 30.964308 -2.458615
2012-03-15 08:02:13 51°17.062 2°52.266 6.1906 3.113978 30.965165 -2.458615
2012-03-15 08:02:17 51°17.073 2°52.253 6.1866 3.114702 30.97313 -2.458615
2012-03-15 08:02:22 51°17.087 2°52.235 6.1883 3.115426 30.981095 -2.458615
2012-03-15 08:02:27 51°17.101 2°52.217 6.1868 3.11584 30.985647 -2.458615
2012-03-15 08:02:32 51°17.114 2°52.199 6.1903 3.11584 30.985647 -2.458615
2012-03-15 08:02:37 51°17.128 2°52.18 6.1871 3.115943 30.985069 -2.458615
2012-03-15 08:02:41 51°17.138 2°52.165 6.1887 3.116771 30.996746 -2.458615
2012-03-15 08:02:47 51°17.154 2°52.142 6.1819 3.116978 31.000739 -2.458615
2012-03-15 08:02:52 51°17.167 2°52.123 6.1784 3.117288 31.005011 -2.458615
2012-03-15 08:02:57 51°17.179 2°52.103 6.1724 3.117392 31.007866 -2.458615
2012-03-15 08:03:02 51°17.191 2°52.082 6.1646 3.117392 31.007866 -2.458615
2012-03-15 08:03:07 51°17.203 2°52.063 6.1561 3.117392 31.007866 -2.458615
2012-03-15 08:03:12 51°17.215 2°52.042 6.1512 3.117495 31.009004 -2.458615
2012-03-15 08:03:17 51°17.226 2°52.021 6.1417 3.117495 31.009863 -2.458615
2012-03-15 08:03:22 51°17.238 2°52 6.1338 3.116564 31.003052 -2.458615
2012-03-15 08:03:27 51°17.249 2°51.978 6.1234 3.117495 31.015874 -2.458615
2012-03-15 08:03:32 51°17.26 2°51.957 6.1177 3.117495 31.015874 -2.458615
2012-03-15 08:03:37 51°17.271 2°51.936 6.1112 3.116978 31.014476 -2.458615
2012-03-15 08:03:42 51°17.281 2°51.913 6.1083 3.11584 31.009682 -2.458615
2012-03-15 08:03:47 51°17.292 2°51.892 6.1075 3.114806 31.003447 -2.458615
2012-03-15 08:03:52 51°17.302 2°51.869 6.094 3.113047 30.990956 -2.458615
2012-03-15 08:03:57 51°17.314 2°51.848 6.0989 3.111082 30.977899 -2.458615
2012-03-15 08:04:02 51°17.325 2°51.827 6.1007 3.111082 30.977899 -2.458615
2012-03-15 08:04:08 51°17.34 2°51.803 6.0905 3.10922 30.965977 -2.458615
2012-03-15 08:04:13 51°17.352 2°51.783 6.0852 3.106841 30.948352 -2.458615
2012-03-15 08:04:17 51°17.363 2°51.768 6.0897 3.104461 30.928146 -2.458615
2012-03-15 08:04:22 51°17.376 2°51.748 6.0826 3.102393 30.909639 -2.458615
2012-03-15 08:04:27 51°17.389 2°51.729 6.0817 3.101151 30.901964 -2.458615
2012-03-15 08:04:33 51°17.405 2°51.707 6.0749 3.101151 30.901964 -2.458615
2012-03-15 08:04:37 51°17.416 2°51.693 6.0743 3.0996 30.887437 -2.458615
2012-03-15 08:04:42 51°17.43 2°51.675 6.0735 3.098875 30.882028 -2.458615
2012-03-15 08:04:47 51°17.445 2°51.659 6.0694 3.098255 30.879474 -2.458615
2012-03-15 08:04:52 51°17.459 2°51.641 6.0696 3.097531 30.874922 -2.458615
2012-03-15 08:04:57 51°17.473 2°51.624 6.0685 3.097014 30.873507 -2.458615
2012-03-15 08:05:02 51°17.486 2°51.606 6.074 3.097014 30.873507 -2.458615
2012-03-15 08:05:07 51°17.5 2°51.588 6.0652 3.096496 30.86952 -2.458615
2012-03-15 08:05:12 51°17.514 2°51.571 6.067 3.095772 30.864966 -2.458615
2012-03-15 08:05:17 51°17.527 2°51.553 6.0623 3.095565 30.866972 -2.458615
2012-03-15 08:05:22 51°17.541 2°51.535 6.0641 3.095152 30.865839 -2.458615
2012-03-15 08:05:27 51°17.555 2°51.517 6.0609 3.094428 30.859569 -2.458615
2012-03-15 08:05:32 51°17.569 2°51.5 6.0603 3.094428 30.859569 -2.458615
2012-03-15 08:05:37 51°17.583 2°51.483 6.0549 3.094841 30.865847 -2.458615
2012-03-15 08:05:42 51°17.598 2°51.468 6.0506 3.095876 30.878115 -2.458615
2012-03-15 08:05:47 51°17.613 2°51.452 6.0486 3.096807 30.890959 -2.458615
2012-03-15 08:05:52 51°17.628 2°51.437 6.0446 3.098048 30.905512 -2.458615
2012-03-15 08:05:57 51°17.643 2°51.423 6.0475 3.099186 30.918925 -2.458615
2012-03-15 08:06:02 51°17.658 2°51.409 6.0431 3.099186 30.918925 -2.458615
2012-03-15 08:06:08 51°17.677 2°51.392 6.0412 3.100531 30.935482 -2.458615
2012-03-15 08:06:13 51°17.693 2°51.378 6.0389 3.101565 30.950339 -2.458615
2012-03-15 08:06:17 51°17.705 2°51.366 6.0384 3.10291 30.966902 -2.458615
2012-03-15 08:06:22 51°17.72 2°51.352 6.0372 3.104048 30.984631 -2.458615
2012-03-15 08:06:27 51°17.735 2°51.337 6.0382 3.105083 30.996914 -2.458615
2012-03-15 08:06:33 51°17.753 2°51.319 6.0374 3.105083 30.996914 -2.458615
2012-03-15 08:06:37 51°17.766 2°51.307 6.0367 3.105703 31.006353 -2.458615
2012-03-15 08:06:42 51°17.781 2°51.292 6.0381 3.106531 31.017217 -2.458615
2012-03-15 08:06:47 51°17.796 2°51.277 6.0322 3.107048 31.025517 -2.458615
2012-03-15 08:06:52 51°17.811 2°51.262 6.0368 3.107359 31.032397 -2.458615
2012-03-15 08:06:57 51°17.827 2°51.247 6.034 3.107566 31.035546 -2.458615
2012-03-15 08:07:01 51°17.839 2°51.235 6.0332 3.107566 31.035546 -2.458615
2012-03-15 08:07:07 51°17.857 2°51.217 6.0324 3.107566 31.036409 -2.458615
2012-03-15 08:07:12 51°17.872 2°51.202 6.0336 3.107773 31.040422 -2.458615
2012-03-15 08:07:17 51°17.887 2°51.186 6.032 3.107773 31.040422 -2.458615
2012-03-15 08:07:22 51°17.902 2°51.171 6.0287 3.107876 31.042428 -2.458615
2012-03-15 08:07:27 51°17.917 2°51.155 6.0297 3.107876 31.043292 -2.458615
2012-03-15 08:07:32 51°17.932 2°51.139 6.0283 3.107876 31.043292 -2.458615
2012-03-15 08:07:37 51°17.946 2°51.123 6.0282 3.107669 31.042734 -2.458615
2012-03-15 08:07:42 51°17.961 2°51.108 6.0233 3.107669 31.042734 -2.458615
2012-03-15 08:07:47 51°17.976 2°51.092 6.0229 3.107462 31.040448 -2.458615
2012-03-15 08:07:52 51°17.991 2°51.077 6.0246 3.107152 31.038746 -2.458615
2012-03-15 08:07:57 51°18.006 2°51.061 6.0209 3.107152 31.03961 -2.458615
2012-03-15 08:08:02 51°18.022 2°51.046 6.0229 3.107152 31.03961 -2.458615
2012-03-15 08:08:07 51°18.036 2°51.03 6.0255 3.106842 31.037908 -2.458615
2012-03-15 08:08:13 51°18.054 2°51.01 6.0214 3.106428 31.0342 -2.458615
2012-03-15 08:08:17 51°18.065 2°50.997 6.0198 3.106221 31.033641 -2.458615
2012-03-15 08:08:22 51°18.08 2°50.98 6.0192 3.105911 31.031075 -2.458615
2012-03-15 08:08:27 51°18.095 2°50.964 6.019 3.105704 31.030516 -2.458615
2012-03-15 08:08:32 51°18.109 2°50.947 6.0179 3.105704 31.030516 -2.458615
2012-03-15 08:08:37 51°18.123 2°50.93 6.0154 3.105497 31.029957 -2.458615
2012-03-15 08:08:42 51°18.137 2°50.912 6.0141 3.105083 31.025385 -2.458615
2012-03-15 08:08:47 51°18.15 2°50.893 6.0225 3.104773 31.022818 -2.458615
2012-03-15 08:08:53 51°18.166 2°50.871 6.0087 3.104359 31.019109 -2.458615
2012-03-15 08:08:57 51°18.177 2°50.856 6.0082 3.103945 31.0154 -2.458615
2012-03-15 08:09:01 51°18.188 2°50.841 6.0052 3.103945 31.0154 -2.458615
2012-03-15 08:09:07 51°18.204 2°50.818 6.005 3.103325 31.010267 -2.458615
2012-03-15 08:09:12 51°18.217 2°50.8 6.0043 3.1026 31.00399 -2.458615
2012-03-15 08:09:17 51°18.23 2°50.78 5.9966 3.10198 30.998857 -2.458615
2012-03-15 08:09:22 51°18.243 2°50.761 5.9947 3.101359 30.991997 -2.458615
2012-03-15 08:09:27 51°18.256 2°50.742 5.9945 3.100014 30.979722 -2.458615
2012-03-15 08:09:32 51°18.27 2°50.723 5.9873 3.100014 30.979722 -2.458615
2012-03-15 08:09:37 51°18.283 2°50.704 5.9866 3.099394 30.974588 -2.458615
2012-03-15 08:09:42 51°18.297 2°50.686 5.9811 3.099187 30.974889 -2.458615
2012-03-15 08:09:47 51°18.31 2°50.668 5.9806 3.098566 30.970616 -2.458615
2012-03-15 08:09:52 51°18.324 2°50.65 5.9698 3.098359 30.970054 -2.458615
2012-03-15 08:09:57 51°18.339 2°50.633 5.9688 3.097532 30.963493 -2.458615
2012-03-15 08:10:02 51°18.354 2°50.617 5.9639 3.097532 30.963493 -2.458615
2012-03-15 08:10:07 51°18.369 2°50.601 5.9561 3.096808 30.958938 -2.458615
2012-03-15 08:10:13 51°18.387 2°50.583 5.9529 3.09598 30.952376 -2.458615
2012-03-15 08:10:17 51°18.399 2°50.57 5.9491 3.095256 30.948681 -2.458615
2012-03-15 08:10:22 51°18.414 2°50.555 5.9415 3.094325 30.940973 -2.458615
2012-03-15 08:10:27 51°18.429 2°50.54 5.9283 3.093498 30.936996 -2.458615
2012-03-15 08:10:32 51°18.444 2°50.525 5.9151 3.093498 30.936996 -2.458615
2012-03-15 08:10:37 51°18.459 2°50.509 5.9161 3.092567 30.931873 -2.458615
2012-03-15 08:10:42 51°18.474 2°50.493 5.9007 3.091636 30.925886 -2.458615
2012-03-15 08:10:47 51°18.489 2°50.478 5.8869 3.090498 30.91761 -2.458615
2012-03-15 08:10:52 51°18.503 2°50.463 5.8825 3.089257 30.909049 -2.458615
2012-03-15 08:10:57 51°18.518 2°50.446 5.8625 3.088015 30.902211 -2.458615
2012-03-15 08:11:02 51°18.533 2°50.43 5.8523 3.088015 30.902211 -2.458615
2012-03-15 08:11:07 51°18.548 2°50.415 5.8455 3.08574 30.885646 -2.458615
2012-03-15 08:11:13 51°18.565 2°50.396 5.8367 3.083774 30.873372 -2.458615
2012-03-15 08:11:17 51°18.577 2°50.383 5.8257 3.080878 30.851646 -2.458615
2012-03-15 08:11:22 51°18.591 2°50.366 5.8091 3.078189 30.83134 -2.458615
2012-03-15 08:11:27 51°18.606 2°50.35 5.799 3.075603 30.813894 -2.458615
2012-03-15 08:11:32 51°18.621 2°50.334 5.793 3.075603 30.813894 -2.458615
2012-03-15 08:11:37 51°18.636 2°50.318 5.7873 3.072707 30.794723 -2.458615
2012-03-15 08:11:42 51°18.651 2°50.302 5.7736 3.070017 30.778694 -2.458615
2012-03-15 08:11:47 51°18.665 2°50.285 5.7704 3.067328 30.75749 -2.458615
2012-03-15 08:11:52 51°18.68 2°50.268 5.7595 3.065052 30.743448 -2.458615
2012-03-15 08:11:57 51°18.694 2°50.252 5.7567 3.062777 30.728538 -2.458615
2012-03-15 08:12:02 51°18.709 2°50.234 5.7543 3.062777 30.728538 -2.458615
2012-03-15 08:12:07 51°18.723 2°50.217 5.7499 3.059984 30.708744 -2.458615
2012-03-15 08:12:12 51°18.738 2°50.2 5.7423 3.058122 30.697549 -2.458615
2012-03-15 08:12:17 51°18.751 2°50.182 5.7409 3.056157 30.686922 -2.458615
2012-03-15 08:12:22 51°18.765 2°50.165 5.7391 3.054502 30.676294 -2.458615
2012-03-15 08:12:27 51°18.78 2°50.147 5.7258 3.052951 30.66595 -2.458615
2012-03-15 08:12:32 51°18.794 2°50.129 5.7212 3.052951 30.66595 -2.458615
2012-03-15 08:12:37 51°18.807 2°50.11 5.7156 3.05171 30.659909 -2.458615
2012-03-15 08:12:42 51°18.821 2°50.092 5.7088 3.050572 30.652434 -2.458615
2012-03-15 08:12:47 51°18.835 2°50.073 5.6988 3.049641 30.649836 -2.458615
2012-03-15 08:12:52 51°18.849 2°50.055 5.6908 3.048503 30.643218 -2.458615
2012-03-15 08:12:57 51°18.863 2°50.038 5.6882 3.047986 30.640913 -2.458615
2012-03-15 08:13:02 51°18.877 2°50.02 5.67 3.047986 30.640913 -2.458615
2012-03-15 08:13:07 51°18.891 2°50.002 5.6618 3.047469 30.64377 -2.458615
2012-03-15 08:13:13 51°18.908 2°49.981 5.6534 3.046849 30.643758 -2.458615
2012-03-15 08:13:17 51°18.92 2°49.967 5.6538 3.046332 30.643175 -2.458615
2012-03-15 08:13:22 51°18.934 2°49.95 5.6506 3.045608 30.643735 -2.458615
2012-03-15 08:13:27 51°18.948 2°49.933 5.6501 3.045194 30.646887 -2.458615
2012-03-15 08:13:33 51°18.966 2°49.913 5.6352 3.045194 30.646887 -2.458615
2012-03-15 08:13:37 51°18.978 2°49.899 5.6314 3.04478 30.65004 -2.458615
2012-03-15 08:13:42 51°18.992 2°49.883 5.6239 3.04416 30.65348 -2.458615
2012-03-15 08:13:47 51°19.007 2°49.868 5.6137 3.04385 30.657788 -2.458615
2012-03-15 08:13:52 51°19.022 2°49.853 5.6047 3.043539 30.661236 -2.458615
2012-03-15 08:13:57 51°19.038 2°49.838 5.5976 3.043229 30.664686 -2.458615
2012-03-15 08:14:01 51°19.05 2°49.826 5.5897 3.043229 30.664686 -2.458615
2012-03-15 08:14:07 51°19.069 2°49.81 5.5803 3.043126 30.669579 -2.458615
2012-03-15 08:14:12 51°19.084 2°49.796 5.58 3.042816 30.672168 -2.458615
2012-03-15 08:14:17 51°19.1 2°49.782 5.5735 3.042609 30.675912 -2.458615
2012-03-15 08:14:22 51°19.116 2°49.768 5.571 3.042919 30.688014 -2.458615
2012-03-15 08:14:27 51°19.132 2°49.754 5.5668 3.043126 30.698106 -2.458615
2012-03-15 08:14:32 51°19.147 2°49.74 5.5654 3.043126 30.698106 -2.458615
2012-03-15 08:14:37 51°19.163 2°49.726 5.5593 3.04323 30.708781 -2.458615
2012-03-15 08:14:42 51°19.179 2°49.712 5.554 3.043437 30.71975 -2.458615
2012-03-15 08:14:47 51°19.194 2°49.697 5.5521 3.043437 30.725817 -2.458615
2012-03-15 08:14:52 51°19.209 2°49.682 5.5493 3.04354 30.733908 -2.458615
2012-03-15 08:14:57 51°19.225 2°49.668 5.5527 3.043747 30.742289 -2.458615
2012-03-15 08:15:02 51°19.241 2°49.654 5.5482 3.043747 30.742289 -2.458615
2012-03-15 08:15:08 51°19.259 2°49.636 5.5453 3.043747 30.746628 -2.458615
2012-03-15 08:15:13 51°19.274 2°49.622 5.5427 3.043954 30.754147 -2.458615
2012-03-15 08:15:17 51°19.287 2°49.61 5.5417 3.044058 30.759644 -2.458615
2012-03-15 08:15:22 51°19.302 2°49.594 5.5425 3.044161 30.765144 -2.458615
2012-03-15 08:15:27 51°19.316 2°49.578 5.5384 3.044471 30.772086 -2.458615
2012-03-15 08:15:33 51°19.334 2°49.559 5.5373 3.044471 30.772086 -2.458615
2012-03-15 08:15:37 51°19.346 2°49.546 5.5384 3.044575 30.77585 -2.458615
2012-03-15 08:15:42 51°19.36 2°49.529 5.5351 3.044782 30.780769 -2.458615
2012-03-15 08:15:47 51°19.374 2°49.512 5.5316 3.045196 30.788002 -2.458615
2012-03-15 08:15:52 51°19.389 2°49.495 5.5319 3.045196 30.788872 -2.458615
2012-03-15 08:15:57 51°19.403 2°49.478 5.5326 3.045299 30.793508 -2.458615
2012-03-15 08:16:01 51°19.415 2°49.464 5.5308 3.045299 30.793508 -2.458615
2012-03-15 08:16:07 51°19.432 2°49.444 5.5319 3.045402 30.797275 -2.458615
2012-03-15 08:16:12 51°19.447 2°49.427 5.5285 3.045196 30.796703 -2.458615
2012-03-15 08:16:17 51°19.461 2°49.411 5.5262 3.045092 30.797288 -2.458615
2012-03-15 08:16:22 51°19.476 2°49.395 5.5256 3.044782 30.79556 -2.458615
2012-03-15 08:16:27 51°19.491 2°49.379 5.5253 3.044368 30.791806 -2.458615
2012-03-15 08:16:32 51°19.506 2°49.362 5.522 3.044368 30.791806 -2.458615
2012-03-15 08:16:37 51°19.521 2°49.346 5.5241 3.044058 30.790078 -2.458615
2012-03-15 08:16:42 51°19.536 2°49.33 5.5206 3.043541 30.785166 -2.458615
2012-03-15 08:16:47 51°19.551 2°49.315 5.5266 3.04323 30.781697 -2.458615
2012-03-15 08:16:52 51°19.566 2°49.299 5.519 3.042506 30.775343 -2.458615
2012-03-15 08:16:57 51°19.581 2°49.284 5.522 3.041886 30.771015 -2.458615
2012-03-15 08:17:02 51°19.596 2°49.269 5.5171 3.041886 30.771015 -2.458615
2012-03-15 08:17:07 51°19.612 2°49.254 5.521 3.041265 30.764947 -2.458615
2012-03-15 08:17:13 51°19.631 2°49.236 5.5251 3.040645 30.759748 -2.458615
2012-03-15 08:17:17 51°19.643 2°49.225 5.5227 3.040127 30.753966 -2.458615
2012-03-15 08:17:22 51°19.659 2°49.211 5.5223 3.039714 30.75021 -2.458615
2012-03-15 08:17:27 51°19.675 2°49.197 5.5256 3.039197 30.745298 -2.458615
2012-03-15 08:17:32 51°19.691 2°49.184 5.5247 3.039197 30.745298 -2.458615
2012-03-15 08:17:37 51°19.707 2°49.17 5.5236 3.038886 30.742698 -2.458615
2012-03-15 08:17:42 51°19.723 2°49.156 5.5253 3.038576 30.740098 -2.458615
2012-03-15 08:17:47 51°19.739 2°49.141 5.5306 3.038266 30.736628 -2.458615
2012-03-15 08:17:52 51°19.754 2°49.127 5.5291 3.038059 30.732577 -2.458615
2012-03-15 08:17:57 51°19.77 2°49.112 5.5298 3.044058 30.800526 -2.458615
2012-03-15 08:18:02 51°19.785 2°49.097 5.5284 3.044058 30.800526 -2.458615
2012-03-15 08:18:07 51°19.8 2°49.081 5.532 3.043955 30.79937 -2.458615
2012-03-15 08:18:12 51°19.816 2°49.067 5.5295 3.043851 30.798213 -2.458615
2012-03-15 08:18:17 51°19.831 2°49.051 5.5324 3.034749 30.695577 -2.458615
2012-03-15 08:18:22 51°19.847 2°49.036 5.5385 3.030301 30.644135 -2.458615
2012-03-15 08:18:27 51°19.862 2°49.02 5.5359 3.043955 30.796757 -2.458615
2012-03-15 08:18:32 51°19.877 2°49.004 5.5382 3.043955 30.796757 -2.458615
2012-03-15 08:18:37 51°19.892 2°48.987 5.5331 3.043955 30.795886 -2.458615
2012-03-15 08:18:42 51°19.907 2°48.971 5.5338 3.043955 30.795015 -2.458615
2012-03-15 08:18:47 51°19.922 2°48.954 5.5339 3.044161 30.795587 -2.458615
2012-03-15 08:18:52 51°19.937 2°48.938 5.5314 3.043955 30.794145 -2.458615
2012-03-15 08:18:57 51°19.952 2°48.922 5.5345 3.043955 30.792403 -2.458615
2012-03-15 08:19:02 51°19.967 2°48.907 5.5316 3.043955 30.792403 -2.458615